<?xml version="1.0" encoding="UTF-8" standalone="no" ?>
<gpx xmlns="http://www.topografix.com/GPX/1/1" xmlns:xsi="http://www.w3.org/2001/XMLSchema-instance" xsi:schemaLocation="http://www.topografix.com/GPX/1/1 http://www.topografix.com/GPX/1/1/gpx.xsd" version="1.1" creator="VisuGPX - https://www.visugpx.com">
  <metadata>
    <name>CHATILLON LE DUC</name>
    <desc><![CDATA[CHATILLON LE DUC]]></desc>
  </metadata>
  <trk>
    <name><![CDATA[CHATILLON LE DUC]]></name>
    <trkseg>
      <trkpt lat="47.30664" lon="6.00899">
        <ele>434</ele>
        <time>2012-05-04T12:04:46Z</time>
      </trkpt>
      <trkpt lat="47.30664" lon="6.00899">
        <ele>501.4</ele>
        <time>2012-05-04T12:05:04Z</time>
      </trkpt>
      <trkpt lat="47.30667" lon="6.00907">
        <ele>484.6</ele>
        <time>2012-05-04T12:05:09Z</time>
      </trkpt>
      <trkpt lat="47.30675" lon="6.00907">
        <ele>482.1</ele>
        <time>2012-05-04T12:05:13Z</time>
      </trkpt>
      <trkpt lat="47.30679" lon="6.00916">
        <ele>482.1</ele>
        <time>2012-05-04T12:05:18Z</time>
      </trkpt>
      <trkpt lat="47.30681" lon="6.00927">
        <ele>483.7</ele>
        <time>2012-05-04T12:05:24Z</time>
      </trkpt>
      <trkpt lat="47.30682" lon="6.00938">
        <ele>482.5</ele>
        <time>2012-05-04T12:05:31Z</time>
      </trkpt>
      <trkpt lat="47.30679" lon="6.0095">
        <ele>481.4</ele>
        <time>2012-05-04T12:05:37Z</time>
      </trkpt>
      <trkpt lat="47.3068" lon="6.00959">
        <ele>482</ele>
        <time>2012-05-04T12:05:43Z</time>
      </trkpt>
      <trkpt lat="47.30679" lon="6.0097">
        <ele>482.4</ele>
        <time>2012-05-04T12:05:47Z</time>
      </trkpt>
      <trkpt lat="47.30676" lon="6.00981">
        <ele>483.3</ele>
        <time>2012-05-04T12:05:51Z</time>
      </trkpt>
      <trkpt lat="47.30675" lon="6.0099">
        <ele>481.1</ele>
        <time>2012-05-04T12:05:57Z</time>
      </trkpt>
      <trkpt lat="47.30677" lon="6.01">
        <ele>481.3</ele>
        <time>2012-05-04T12:06:03Z</time>
      </trkpt>
      <trkpt lat="47.30676" lon="6.0101">
        <ele>482.5</ele>
        <time>2012-05-04T12:06:09Z</time>
      </trkpt>
      <trkpt lat="47.30677" lon="6.0102">
        <ele>481.8</ele>
        <time>2012-05-04T12:06:14Z</time>
      </trkpt>
      <trkpt lat="47.30678" lon="6.0103">
        <ele>480.8</ele>
        <time>2012-05-04T12:06:20Z</time>
      </trkpt>
      <trkpt lat="47.30678" lon="6.0104">
        <ele>479.9</ele>
        <time>2012-05-04T12:06:26Z</time>
      </trkpt>
      <trkpt lat="47.3068" lon="6.0105">
        <ele>482.2</ele>
        <time>2012-05-04T12:06:32Z</time>
      </trkpt>
      <trkpt lat="47.30679" lon="6.01061">
        <ele>481.5</ele>
        <time>2012-05-04T12:06:37Z</time>
      </trkpt>
      <trkpt lat="47.30679" lon="6.01072">
        <ele>479.4</ele>
        <time>2012-05-04T12:06:46Z</time>
      </trkpt>
      <trkpt lat="47.30677" lon="6.01084">
        <ele>480.3</ele>
        <time>2012-05-04T12:06:50Z</time>
      </trkpt>
      <trkpt lat="47.3068" lon="6.01096">
        <ele>481.2</ele>
        <time>2012-05-04T12:06:57Z</time>
      </trkpt>
      <trkpt lat="47.30681" lon="6.01106">
        <ele>480.8</ele>
        <time>2012-05-04T12:07:00Z</time>
      </trkpt>
      <trkpt lat="47.3068" lon="6.01116">
        <ele>480.5</ele>
        <time>2012-05-04T12:07:05Z</time>
      </trkpt>
      <trkpt lat="47.3068" lon="6.01128">
        <ele>481</ele>
        <time>2012-05-04T12:07:10Z</time>
      </trkpt>
      <trkpt lat="47.30681" lon="6.01137">
        <ele>482.8</ele>
        <time>2012-05-04T12:07:17Z</time>
      </trkpt>
      <trkpt lat="47.30684" lon="6.01146">
        <ele>483.4</ele>
        <time>2012-05-04T12:07:25Z</time>
      </trkpt>
      <trkpt lat="47.30684" lon="6.01156">
        <ele>482.1</ele>
        <time>2012-05-04T12:07:30Z</time>
      </trkpt>
      <trkpt lat="47.30683" lon="6.01166">
        <ele>479.9</ele>
        <time>2012-05-04T12:07:35Z</time>
      </trkpt>
      <trkpt lat="47.30682" lon="6.01176">
        <ele>480.2</ele>
        <time>2012-05-04T12:07:41Z</time>
      </trkpt>
      <trkpt lat="47.30685" lon="6.01186">
        <ele>481.3</ele>
        <time>2012-05-04T12:07:45Z</time>
      </trkpt>
      <trkpt lat="47.30686" lon="6.01196">
        <ele>481.1</ele>
        <time>2012-05-04T12:07:51Z</time>
      </trkpt>
      <trkpt lat="47.30686" lon="6.01196">
        <ele>436.4</ele>
        <time>2012-05-04T12:08:02Z</time>
      </trkpt>
      <trkpt lat="47.30686" lon="6.01196">
        <ele>436.4</ele>
        <time>2012-05-04T12:08:24Z</time>
      </trkpt>
      <trkpt lat="47.30688" lon="6.01217">
        <ele>479.3</ele>
        <time>2012-05-04T12:08:28Z</time>
      </trkpt>
      <trkpt lat="47.30688" lon="6.01226">
        <ele>479.7</ele>
        <time>2012-05-04T12:08:33Z</time>
      </trkpt>
      <trkpt lat="47.30689" lon="6.01236">
        <ele>480.9</ele>
        <time>2012-05-04T12:08:37Z</time>
      </trkpt>
      <trkpt lat="47.3069" lon="6.01245">
        <ele>481.4</ele>
        <time>2012-05-04T12:08:42Z</time>
      </trkpt>
      <trkpt lat="47.30691" lon="6.01254">
        <ele>481.8</ele>
        <time>2012-05-04T12:08:48Z</time>
      </trkpt>
      <trkpt lat="47.30693" lon="6.01264">
        <ele>482.1</ele>
        <time>2012-05-04T12:08:53Z</time>
      </trkpt>
      <trkpt lat="47.30694" lon="6.01273">
        <ele>481.5</ele>
        <time>2012-05-04T12:08:58Z</time>
      </trkpt>
      <trkpt lat="47.30695" lon="6.01283">
        <ele>482.2</ele>
        <time>2012-05-04T12:09:04Z</time>
      </trkpt>
      <trkpt lat="47.30694" lon="6.01293">
        <ele>483.5</ele>
        <time>2012-05-04T12:09:09Z</time>
      </trkpt>
      <trkpt lat="47.30693" lon="6.01303">
        <ele>483.7</ele>
        <time>2012-05-04T12:09:14Z</time>
      </trkpt>
      <trkpt lat="47.30695" lon="6.01313">
        <ele>484.3</ele>
        <time>2012-05-04T12:09:19Z</time>
      </trkpt>
      <trkpt lat="47.30698" lon="6.01321">
        <ele>485.1</ele>
        <time>2012-05-04T12:09:24Z</time>
      </trkpt>
      <trkpt lat="47.30698" lon="6.01321">
        <ele>437</ele>
        <time>2012-05-04T12:09:36Z</time>
      </trkpt>
      <trkpt lat="47.30698" lon="6.01321">
        <ele>437</ele>
        <time>2012-05-04T12:10:20Z</time>
      </trkpt>
      <trkpt lat="47.30698" lon="6.01321">
        <ele>437</ele>
        <time>2012-05-04T12:10:31Z</time>
      </trkpt>
      <trkpt lat="47.30698" lon="6.01321">
        <ele>437</ele>
        <time>2012-05-04T12:10:38Z</time>
      </trkpt>
      <trkpt lat="47.30704" lon="6.01356">
        <ele>489.9</ele>
        <time>2012-05-04T12:10:42Z</time>
      </trkpt>
      <trkpt lat="47.307" lon="6.01364">
        <ele>490.1</ele>
        <time>2012-05-04T12:10:48Z</time>
      </trkpt>
      <trkpt lat="47.30699" lon="6.01375">
        <ele>488.1</ele>
        <time>2012-05-04T12:10:51Z</time>
      </trkpt>
      <trkpt lat="47.307" lon="6.01385">
        <ele>488.1</ele>
        <time>2012-05-04T12:10:56Z</time>
      </trkpt>
      <trkpt lat="47.30698" lon="6.01396">
        <ele>487.5</ele>
        <time>2012-05-04T12:11:07Z</time>
      </trkpt>
      <trkpt lat="47.30697" lon="6.01406">
        <ele>485.8</ele>
        <time>2012-05-04T12:11:10Z</time>
      </trkpt>
      <trkpt lat="47.30696" lon="6.01415">
        <ele>487.3</ele>
        <time>2012-05-04T12:11:18Z</time>
      </trkpt>
      <trkpt lat="47.30694" lon="6.01427">
        <ele>486.8</ele>
        <time>2012-05-04T12:11:23Z</time>
      </trkpt>
      <trkpt lat="47.30696" lon="6.01438">
        <ele>486</ele>
        <time>2012-05-04T12:11:28Z</time>
      </trkpt>
      <trkpt lat="47.30696" lon="6.01449">
        <ele>485.5</ele>
        <time>2012-05-04T12:11:35Z</time>
      </trkpt>
      <trkpt lat="47.30694" lon="6.0146">
        <ele>483.4</ele>
        <time>2012-05-04T12:11:41Z</time>
      </trkpt>
      <trkpt lat="47.30693" lon="6.0147">
        <ele>484.1</ele>
        <time>2012-05-04T12:11:48Z</time>
      </trkpt>
      <trkpt lat="47.30689" lon="6.01479">
        <ele>486.5</ele>
        <time>2012-05-04T12:11:53Z</time>
      </trkpt>
      <trkpt lat="47.30689" lon="6.01489">
        <ele>486.1</ele>
        <time>2012-05-04T12:11:58Z</time>
      </trkpt>
      <trkpt lat="47.30691" lon="6.01498">
        <ele>486.1</ele>
        <time>2012-05-04T12:12:04Z</time>
      </trkpt>
      <trkpt lat="47.30689" lon="6.01508">
        <ele>484.4</ele>
        <time>2012-05-04T12:12:11Z</time>
      </trkpt>
      <trkpt lat="47.30687" lon="6.01517">
        <ele>484.2</ele>
        <time>2012-05-04T12:12:14Z</time>
      </trkpt>
      <trkpt lat="47.30686" lon="6.01528">
        <ele>484.3</ele>
        <time>2012-05-04T12:12:19Z</time>
      </trkpt>
      <trkpt lat="47.30686" lon="6.01538">
        <ele>484.6</ele>
        <time>2012-05-04T12:12:24Z</time>
      </trkpt>
      <trkpt lat="47.30689" lon="6.01547">
        <ele>484.7</ele>
        <time>2012-05-04T12:12:29Z</time>
      </trkpt>
      <trkpt lat="47.30689" lon="6.01558">
        <ele>484</ele>
        <time>2012-05-04T12:12:36Z</time>
      </trkpt>
      <trkpt lat="47.30688" lon="6.01567">
        <ele>484.6</ele>
        <time>2012-05-04T12:12:43Z</time>
      </trkpt>
      <trkpt lat="47.3069" lon="6.01578">
        <ele>485.5</ele>
        <time>2012-05-04T12:12:49Z</time>
      </trkpt>
      <trkpt lat="47.30686" lon="6.01587">
        <ele>485</ele>
        <time>2012-05-04T12:12:53Z</time>
      </trkpt>
      <trkpt lat="47.30688" lon="6.01596">
        <ele>485.4</ele>
        <time>2012-05-04T12:12:58Z</time>
      </trkpt>
      <trkpt lat="47.30688" lon="6.01596">
        <ele>435.5</ele>
        <time>2012-05-04T12:13:09Z</time>
      </trkpt>
      <trkpt lat="47.30688" lon="6.01596">
        <ele>435.5</ele>
        <time>2012-05-04T12:13:37Z</time>
      </trkpt>
      <trkpt lat="47.30698" lon="6.0161">
        <ele>486.9</ele>
        <time>2012-05-04T12:13:44Z</time>
      </trkpt>
      <trkpt lat="47.30705" lon="6.01611">
        <ele>487.5</ele>
        <time>2012-05-04T12:13:50Z</time>
      </trkpt>
      <trkpt lat="47.30713" lon="6.01614">
        <ele>488.4</ele>
        <time>2012-05-04T12:13:59Z</time>
      </trkpt>
      <trkpt lat="47.3072" lon="6.01619">
        <ele>487.1</ele>
        <time>2012-05-04T12:14:05Z</time>
      </trkpt>
      <trkpt lat="47.30726" lon="6.01618">
        <ele>487.1</ele>
        <time>2012-05-04T12:14:11Z</time>
      </trkpt>
      <trkpt lat="47.30731" lon="6.01623">
        <ele>488.2</ele>
        <time>2012-05-04T12:14:18Z</time>
      </trkpt>
      <trkpt lat="47.30736" lon="6.01631">
        <ele>487.6</ele>
        <time>2012-05-04T12:14:23Z</time>
      </trkpt>
      <trkpt lat="47.30742" lon="6.01633">
        <ele>487.9</ele>
        <time>2012-05-04T12:14:28Z</time>
      </trkpt>
      <trkpt lat="47.30746" lon="6.01643">
        <ele>489.7</ele>
        <time>2012-05-04T12:14:34Z</time>
      </trkpt>
      <trkpt lat="47.30746" lon="6.01643">
        <ele>439.2</ele>
        <time>2012-05-04T12:14:45Z</time>
      </trkpt>
      <trkpt lat="47.30746" lon="6.01643">
        <ele>439.2</ele>
        <time>2012-05-04T12:14:53Z</time>
      </trkpt>
      <trkpt lat="47.30758" lon="6.01653">
        <ele>492</ele>
        <time>2012-05-04T12:14:57Z</time>
      </trkpt>
      <trkpt lat="47.30765" lon="6.01658">
        <ele>493.2</ele>
        <time>2012-05-04T12:15:01Z</time>
      </trkpt>
      <trkpt lat="47.30772" lon="6.01662">
        <ele>494.2</ele>
        <time>2012-05-04T12:15:06Z</time>
      </trkpt>
      <trkpt lat="47.3078" lon="6.01662">
        <ele>494.6</ele>
        <time>2012-05-04T12:15:09Z</time>
      </trkpt>
      <trkpt lat="47.30786" lon="6.01668">
        <ele>495.6</ele>
        <time>2012-05-04T12:15:14Z</time>
      </trkpt>
      <trkpt lat="47.30794" lon="6.01675">
        <ele>496.2</ele>
        <time>2012-05-04T12:15:21Z</time>
      </trkpt>
      <trkpt lat="47.308" lon="6.01678">
        <ele>495</ele>
        <time>2012-05-04T12:15:26Z</time>
      </trkpt>
      <trkpt lat="47.30806" lon="6.01683">
        <ele>496</ele>
        <time>2012-05-04T12:15:33Z</time>
      </trkpt>
      <trkpt lat="47.30806" lon="6.01683">
        <ele>443.4</ele>
        <time>2012-05-04T12:15:44Z</time>
      </trkpt>
      <trkpt lat="47.30806" lon="6.01683">
        <ele>443.4</ele>
        <time>2012-05-04T12:15:53Z</time>
      </trkpt>
      <trkpt lat="47.30821" lon="6.01689">
        <ele>496</ele>
        <time>2012-05-04T12:15:56Z</time>
      </trkpt>
      <trkpt lat="47.30828" lon="6.01693">
        <ele>495.8</ele>
        <time>2012-05-04T12:16:00Z</time>
      </trkpt>
      <trkpt lat="47.30835" lon="6.01696">
        <ele>496.2</ele>
        <time>2012-05-04T12:16:03Z</time>
      </trkpt>
      <trkpt lat="47.3084" lon="6.01703">
        <ele>496.9</ele>
        <time>2012-05-04T12:16:05Z</time>
      </trkpt>
      <trkpt lat="47.30845" lon="6.01708">
        <ele>498.3</ele>
        <time>2012-05-04T12:16:09Z</time>
      </trkpt>
      <trkpt lat="47.30849" lon="6.01719">
        <ele>498</ele>
        <time>2012-05-04T12:16:15Z</time>
      </trkpt>
      <trkpt lat="47.30853" lon="6.01726">
        <ele>498.7</ele>
        <time>2012-05-04T12:16:25Z</time>
      </trkpt>
      <trkpt lat="47.30853" lon="6.01726">
        <ele>445.1</ele>
        <time>2012-05-04T12:16:37Z</time>
      </trkpt>
      <trkpt lat="47.30853" lon="6.01726">
        <ele>445.1</ele>
        <time>2012-05-04T12:16:41Z</time>
      </trkpt>
      <trkpt lat="47.30867" lon="6.01736">
        <ele>500.7</ele>
        <time>2012-05-04T12:16:44Z</time>
      </trkpt>
      <trkpt lat="47.30874" lon="6.01741">
        <ele>500.8</ele>
        <time>2012-05-04T12:16:46Z</time>
      </trkpt>
      <trkpt lat="47.3088" lon="6.01745">
        <ele>502.4</ele>
        <time>2012-05-04T12:16:49Z</time>
      </trkpt>
      <trkpt lat="47.30886" lon="6.0175">
        <ele>501.6</ele>
        <time>2012-05-04T12:16:55Z</time>
      </trkpt>
      <trkpt lat="47.30891" lon="6.01758">
        <ele>502.4</ele>
        <time>2012-05-04T12:16:59Z</time>
      </trkpt>
      <trkpt lat="47.30898" lon="6.01758">
        <ele>502.6</ele>
        <time>2012-05-04T12:17:03Z</time>
      </trkpt>
      <trkpt lat="47.30904" lon="6.01763">
        <ele>501.4</ele>
        <time>2012-05-04T12:17:09Z</time>
      </trkpt>
      <trkpt lat="47.3091" lon="6.01764">
        <ele>502.2</ele>
        <time>2012-05-04T12:17:12Z</time>
      </trkpt>
      <trkpt lat="47.30915" lon="6.01771">
        <ele>504.4</ele>
        <time>2012-05-04T12:17:16Z</time>
      </trkpt>
      <trkpt lat="47.30918" lon="6.01779">
        <ele>504.1</ele>
        <time>2012-05-04T12:17:21Z</time>
      </trkpt>
      <trkpt lat="47.30924" lon="6.01784">
        <ele>504.3</ele>
        <time>2012-05-04T12:17:28Z</time>
      </trkpt>
      <trkpt lat="47.30931" lon="6.01785">
        <ele>504.1</ele>
        <time>2012-05-04T12:17:34Z</time>
      </trkpt>
      <trkpt lat="47.30931" lon="6.01785">
        <ele>442.3</ele>
        <time>2012-05-04T12:17:45Z</time>
      </trkpt>
      <trkpt lat="47.30931" lon="6.01785">
        <ele>442.3</ele>
        <time>2012-05-04T12:17:46Z</time>
      </trkpt>
      <trkpt lat="47.30943" lon="6.01787">
        <ele>503.6</ele>
        <time>2012-05-04T12:17:49Z</time>
      </trkpt>
      <trkpt lat="47.3095" lon="6.0179">
        <ele>504.1</ele>
        <time>2012-05-04T12:17:54Z</time>
      </trkpt>
      <trkpt lat="47.30955" lon="6.01781">
        <ele>502.1</ele>
        <time>2012-05-04T12:17:59Z</time>
      </trkpt>
      <trkpt lat="47.30961" lon="6.01773">
        <ele>503.4</ele>
        <time>2012-05-04T12:18:06Z</time>
      </trkpt>
      <trkpt lat="47.30966" lon="6.01768">
        <ele>503.5</ele>
        <time>2012-05-04T12:18:09Z</time>
      </trkpt>
      <trkpt lat="47.30973" lon="6.01765">
        <ele>503.5</ele>
        <time>2012-05-04T12:18:16Z</time>
      </trkpt>
      <trkpt lat="47.30973" lon="6.01765">
        <ele>442.8</ele>
        <time>2012-05-04T12:18:28Z</time>
      </trkpt>
      <trkpt lat="47.30973" lon="6.01765">
        <ele>442.8</ele>
        <time>2012-05-04T12:18:42Z</time>
      </trkpt>
      <trkpt lat="47.30988" lon="6.01765">
        <ele>502.5</ele>
        <time>2012-05-04T12:18:44Z</time>
      </trkpt>
      <trkpt lat="47.30994" lon="6.01769">
        <ele>500.5</ele>
        <time>2012-05-04T12:18:47Z</time>
      </trkpt>
      <trkpt lat="47.31002" lon="6.01769">
        <ele>500</ele>
        <time>2012-05-04T12:18:50Z</time>
      </trkpt>
      <trkpt lat="47.31008" lon="6.0177">
        <ele>499.1</ele>
        <time>2012-05-04T12:18:53Z</time>
      </trkpt>
      <trkpt lat="47.31015" lon="6.0177">
        <ele>497.8</ele>
        <time>2012-05-04T12:18:56Z</time>
      </trkpt>
      <trkpt lat="47.31023" lon="6.01768">
        <ele>495.6</ele>
        <time>2012-05-04T12:19:00Z</time>
      </trkpt>
      <trkpt lat="47.3103" lon="6.01768">
        <ele>494</ele>
        <time>2012-05-04T12:19:04Z</time>
      </trkpt>
      <trkpt lat="47.31036" lon="6.01767">
        <ele>493.6</ele>
        <time>2012-05-04T12:19:09Z</time>
      </trkpt>
      <trkpt lat="47.31043" lon="6.01768">
        <ele>492.5</ele>
        <time>2012-05-04T12:19:14Z</time>
      </trkpt>
      <trkpt lat="47.31048" lon="6.01774">
        <ele>493</ele>
        <time>2012-05-04T12:19:20Z</time>
      </trkpt>
      <trkpt lat="47.31054" lon="6.01776">
        <ele>494.3</ele>
        <time>2012-05-04T12:19:25Z</time>
      </trkpt>
      <trkpt lat="47.31061" lon="6.01776">
        <ele>494.3</ele>
        <time>2012-05-04T12:19:31Z</time>
      </trkpt>
      <trkpt lat="47.31068" lon="6.01777">
        <ele>493.4</ele>
        <time>2012-05-04T12:19:36Z</time>
      </trkpt>
      <trkpt lat="47.31075" lon="6.01778">
        <ele>496.7</ele>
        <time>2012-05-04T12:19:42Z</time>
      </trkpt>
      <trkpt lat="47.31082" lon="6.01779">
        <ele>496.8</ele>
        <time>2012-05-04T12:19:46Z</time>
      </trkpt>
      <trkpt lat="47.31089" lon="6.01779">
        <ele>497.5</ele>
        <time>2012-05-04T12:19:57Z</time>
      </trkpt>
      <trkpt lat="47.31097" lon="6.01779">
        <ele>497.8</ele>
        <time>2012-05-04T12:20:02Z</time>
      </trkpt>
      <trkpt lat="47.31103" lon="6.0178">
        <ele>497.8</ele>
        <time>2012-05-04T12:20:07Z</time>
      </trkpt>
      <trkpt lat="47.3111" lon="6.01782">
        <ele>498</ele>
        <time>2012-05-04T12:20:10Z</time>
      </trkpt>
      <trkpt lat="47.31118" lon="6.01782">
        <ele>497.4</ele>
        <time>2012-05-04T12:20:20Z</time>
      </trkpt>
      <trkpt lat="47.31118" lon="6.01782">
        <ele>445.5</ele>
        <time>2012-05-04T12:20:32Z</time>
      </trkpt>
      <trkpt lat="47.31118" lon="6.01782">
        <ele>445.5</ele>
        <time>2012-05-04T12:20:52Z</time>
      </trkpt>
      <trkpt lat="47.31127" lon="6.01799">
        <ele>496.7</ele>
        <time>2012-05-04T12:20:54Z</time>
      </trkpt>
      <trkpt lat="47.31132" lon="6.01809">
        <ele>496.5</ele>
        <time>2012-05-04T12:20:57Z</time>
      </trkpt>
      <trkpt lat="47.31135" lon="6.01818">
        <ele>495.9</ele>
        <time>2012-05-04T12:21:00Z</time>
      </trkpt>
      <trkpt lat="47.31139" lon="6.01827">
        <ele>497</ele>
        <time>2012-05-04T12:21:04Z</time>
      </trkpt>
      <trkpt lat="47.31143" lon="6.01835">
        <ele>496.6</ele>
        <time>2012-05-04T12:21:08Z</time>
      </trkpt>
      <trkpt lat="47.31147" lon="6.01845">
        <ele>496.5</ele>
        <time>2012-05-04T12:21:12Z</time>
      </trkpt>
      <trkpt lat="47.31152" lon="6.01853">
        <ele>498.2</ele>
        <time>2012-05-04T12:21:16Z</time>
      </trkpt>
      <trkpt lat="47.31156" lon="6.01862">
        <ele>499</ele>
        <time>2012-05-04T12:21:24Z</time>
      </trkpt>
      <trkpt lat="47.31161" lon="6.01869">
        <ele>500.5</ele>
        <time>2012-05-04T12:21:30Z</time>
      </trkpt>
      <trkpt lat="47.31163" lon="6.01878">
        <ele>501.2</ele>
        <time>2012-05-04T12:21:36Z</time>
      </trkpt>
      <trkpt lat="47.31166" lon="6.01889">
        <ele>501.8</ele>
        <time>2012-05-04T12:21:39Z</time>
      </trkpt>
      <trkpt lat="47.31169" lon="6.01897">
        <ele>500.9</ele>
        <time>2012-05-04T12:21:45Z</time>
      </trkpt>
      <trkpt lat="47.31172" lon="6.01906">
        <ele>503.8</ele>
        <time>2012-05-04T12:21:55Z</time>
      </trkpt>
      <trkpt lat="47.31176" lon="6.01913">
        <ele>504.8</ele>
        <time>2012-05-04T12:22:03Z</time>
      </trkpt>
      <trkpt lat="47.3118" lon="6.01923">
        <ele>504.6</ele>
        <time>2012-05-04T12:22:08Z</time>
      </trkpt>
      <trkpt lat="47.31185" lon="6.0193">
        <ele>505.8</ele>
        <time>2012-05-04T12:22:14Z</time>
      </trkpt>
      <trkpt lat="47.31192" lon="6.01933">
        <ele>505.5</ele>
        <time>2012-05-04T12:22:20Z</time>
      </trkpt>
      <trkpt lat="47.31197" lon="6.0194">
        <ele>505.3</ele>
        <time>2012-05-04T12:22:27Z</time>
      </trkpt>
      <trkpt lat="47.312" lon="6.01952">
        <ele>504.5</ele>
        <time>2012-05-04T12:22:35Z</time>
      </trkpt>
      <trkpt lat="47.31206" lon="6.01958">
        <ele>506.2</ele>
        <time>2012-05-04T12:22:40Z</time>
      </trkpt>
      <trkpt lat="47.31213" lon="6.01958">
        <ele>506.5</ele>
        <time>2012-05-04T12:22:45Z</time>
      </trkpt>
      <trkpt lat="47.31215" lon="6.01967">
        <ele>508.1</ele>
        <time>2012-05-04T12:22:52Z</time>
      </trkpt>
      <trkpt lat="47.31221" lon="6.01975">
        <ele>508.4</ele>
        <time>2012-05-04T12:23:00Z</time>
      </trkpt>
      <trkpt lat="47.31226" lon="6.01983">
        <ele>508.2</ele>
        <time>2012-05-04T12:23:07Z</time>
      </trkpt>
      <trkpt lat="47.31227" lon="6.01993">
        <ele>507.2</ele>
        <time>2012-05-04T12:23:14Z</time>
      </trkpt>
      <trkpt lat="47.31233" lon="6.01997">
        <ele>507.7</ele>
        <time>2012-05-04T12:23:19Z</time>
      </trkpt>
      <trkpt lat="47.3124" lon="6.02002">
        <ele>508.2</ele>
        <time>2012-05-04T12:23:24Z</time>
      </trkpt>
      <trkpt lat="47.31242" lon="6.02011">
        <ele>509.6</ele>
        <time>2012-05-04T12:23:29Z</time>
      </trkpt>
      <trkpt lat="47.31247" lon="6.02018">
        <ele>509.6</ele>
        <time>2012-05-04T12:23:38Z</time>
      </trkpt>
      <trkpt lat="47.3125" lon="6.02027">
        <ele>508.8</ele>
        <time>2012-05-04T12:23:44Z</time>
      </trkpt>
      <trkpt lat="47.31254" lon="6.02036">
        <ele>508.3</ele>
        <time>2012-05-04T12:23:50Z</time>
      </trkpt>
      <trkpt lat="47.3126" lon="6.02043">
        <ele>507.3</ele>
        <time>2012-05-04T12:23:56Z</time>
      </trkpt>
      <trkpt lat="47.31264" lon="6.02052">
        <ele>505.5</ele>
        <time>2012-05-04T12:24:02Z</time>
      </trkpt>
      <trkpt lat="47.31266" lon="6.02061">
        <ele>506.9</ele>
        <time>2012-05-04T12:24:09Z</time>
      </trkpt>
      <trkpt lat="47.3126" lon="6.02067">
        <ele>510.5</ele>
        <time>2012-05-04T12:24:17Z</time>
      </trkpt>
      <trkpt lat="47.3126" lon="6.02067">
        <ele>462.7</ele>
        <time>2012-05-04T12:24:28Z</time>
      </trkpt>
      <trkpt lat="47.3126" lon="6.02067">
        <ele>462.7</ele>
        <time>2012-05-04T12:25:04Z</time>
      </trkpt>
      <trkpt lat="47.31267" lon="6.02085">
        <ele>506.8</ele>
        <time>2012-05-04T12:25:06Z</time>
      </trkpt>
      <trkpt lat="47.31271" lon="6.02094">
        <ele>508.8</ele>
        <time>2012-05-04T12:25:12Z</time>
      </trkpt>
      <trkpt lat="47.31271" lon="6.02094">
        <ele>464.7</ele>
        <time>2012-05-04T12:25:24Z</time>
      </trkpt>
      <trkpt lat="47.31271" lon="6.02094">
        <ele>464.7</ele>
        <time>2012-05-04T12:25:33Z</time>
      </trkpt>
      <trkpt lat="47.31269" lon="6.02119">
        <ele>509</ele>
        <time>2012-05-04T12:25:35Z</time>
      </trkpt>
      <trkpt lat="47.31266" lon="6.02129">
        <ele>508.4</ele>
        <time>2012-05-04T12:25:38Z</time>
      </trkpt>
      <trkpt lat="47.31272" lon="6.02137">
        <ele>509</ele>
        <time>2012-05-04T12:25:41Z</time>
      </trkpt>
      <trkpt lat="47.31272" lon="6.02149">
        <ele>510.6</ele>
        <time>2012-05-04T12:25:47Z</time>
      </trkpt>
      <trkpt lat="47.31274" lon="6.02158">
        <ele>511.3</ele>
        <time>2012-05-04T12:25:51Z</time>
      </trkpt>
      <trkpt lat="47.31276" lon="6.02167">
        <ele>512.7</ele>
        <time>2012-05-04T12:25:55Z</time>
      </trkpt>
      <trkpt lat="47.31274" lon="6.02177">
        <ele>513.4</ele>
        <time>2012-05-04T12:26:03Z</time>
      </trkpt>
      <trkpt lat="47.31272" lon="6.02187">
        <ele>514.3</ele>
        <time>2012-05-04T12:26:08Z</time>
      </trkpt>
      <trkpt lat="47.31273" lon="6.02197">
        <ele>513.4</ele>
        <time>2012-05-04T12:26:13Z</time>
      </trkpt>
      <trkpt lat="47.31274" lon="6.02207">
        <ele>515.1</ele>
        <time>2012-05-04T12:26:18Z</time>
      </trkpt>
      <trkpt lat="47.31272" lon="6.02217">
        <ele>516.2</ele>
        <time>2012-05-04T12:26:22Z</time>
      </trkpt>
      <trkpt lat="47.31272" lon="6.02217">
        <ele>468.6</ele>
        <time>2012-05-04T12:26:33Z</time>
      </trkpt>
      <trkpt lat="47.31272" lon="6.02217">
        <ele>468.6</ele>
        <time>2012-05-04T12:26:46Z</time>
      </trkpt>
      <trkpt lat="47.31279" lon="6.02235">
        <ele>515.5</ele>
        <time>2012-05-04T12:26:49Z</time>
      </trkpt>
      <trkpt lat="47.31276" lon="6.02243">
        <ele>516.7</ele>
        <time>2012-05-04T12:26:53Z</time>
      </trkpt>
      <trkpt lat="47.31272" lon="6.02254">
        <ele>516.2</ele>
        <time>2012-05-04T12:26:58Z</time>
      </trkpt>
      <trkpt lat="47.31271" lon="6.02264">
        <ele>515.4</ele>
        <time>2012-05-04T12:27:03Z</time>
      </trkpt>
      <trkpt lat="47.31268" lon="6.02274">
        <ele>514.7</ele>
        <time>2012-05-04T12:27:10Z</time>
      </trkpt>
      <trkpt lat="47.31269" lon="6.02284">
        <ele>516.5</ele>
        <time>2012-05-04T12:27:16Z</time>
      </trkpt>
      <trkpt lat="47.31265" lon="6.02293">
        <ele>517</ele>
        <time>2012-05-04T12:27:22Z</time>
      </trkpt>
      <trkpt lat="47.31264" lon="6.02304">
        <ele>517.4</ele>
        <time>2012-05-04T12:27:28Z</time>
      </trkpt>
      <trkpt lat="47.31262" lon="6.02313">
        <ele>517.2</ele>
        <time>2012-05-04T12:27:37Z</time>
      </trkpt>
      <trkpt lat="47.31262" lon="6.02313">
        <ele>467.2</ele>
        <time>2012-05-04T12:27:48Z</time>
      </trkpt>
      <trkpt lat="47.31262" lon="6.02313">
        <ele>467.2</ele>
        <time>2012-05-04T12:28:11Z</time>
      </trkpt>
      <trkpt lat="47.31255" lon="6.02342">
        <ele>515.9</ele>
        <time>2012-05-04T12:28:15Z</time>
      </trkpt>
      <trkpt lat="47.31252" lon="6.02353">
        <ele>515.4</ele>
        <time>2012-05-04T12:28:19Z</time>
      </trkpt>
      <trkpt lat="47.3125" lon="6.02364">
        <ele>514.5</ele>
        <time>2012-05-04T12:28:24Z</time>
      </trkpt>
      <trkpt lat="47.31247" lon="6.02374">
        <ele>515.3</ele>
        <time>2012-05-04T12:28:27Z</time>
      </trkpt>
      <trkpt lat="47.31244" lon="6.02382">
        <ele>514.9</ele>
        <time>2012-05-04T12:28:33Z</time>
      </trkpt>
      <trkpt lat="47.31239" lon="6.0239">
        <ele>516.4</ele>
        <time>2012-05-04T12:28:37Z</time>
      </trkpt>
      <trkpt lat="47.3124" lon="6.02399">
        <ele>515.5</ele>
        <time>2012-05-04T12:28:44Z</time>
      </trkpt>
      <trkpt lat="47.31243" lon="6.02409">
        <ele>517</ele>
        <time>2012-05-04T12:28:50Z</time>
      </trkpt>
      <trkpt lat="47.31242" lon="6.0242">
        <ele>512.5</ele>
        <time>2012-05-04T12:28:55Z</time>
      </trkpt>
      <trkpt lat="47.31241" lon="6.02429">
        <ele>511.5</ele>
        <time>2012-05-04T12:29:00Z</time>
      </trkpt>
      <trkpt lat="47.3124" lon="6.02442">
        <ele>511.7</ele>
        <time>2012-05-04T12:29:07Z</time>
      </trkpt>
      <trkpt lat="47.3124" lon="6.02451">
        <ele>511.5</ele>
        <time>2012-05-04T12:29:12Z</time>
      </trkpt>
      <trkpt lat="47.31236" lon="6.0246">
        <ele>512.2</ele>
        <time>2012-05-04T12:29:15Z</time>
      </trkpt>
      <trkpt lat="47.31234" lon="6.0247">
        <ele>514.1</ele>
        <time>2012-05-04T12:29:20Z</time>
      </trkpt>
      <trkpt lat="47.31235" lon="6.02481">
        <ele>512.5</ele>
        <time>2012-05-04T12:29:28Z</time>
      </trkpt>
      <trkpt lat="47.31235" lon="6.0249">
        <ele>512.7</ele>
        <time>2012-05-04T12:29:33Z</time>
      </trkpt>
      <trkpt lat="47.31236" lon="6.02499">
        <ele>512.2</ele>
        <time>2012-05-04T12:29:43Z</time>
      </trkpt>
      <trkpt lat="47.31235" lon="6.02508">
        <ele>511.6</ele>
        <time>2012-05-04T12:29:48Z</time>
      </trkpt>
      <trkpt lat="47.31234" lon="6.02519">
        <ele>511.4</ele>
        <time>2012-05-04T12:29:51Z</time>
      </trkpt>
      <trkpt lat="47.31234" lon="6.02529">
        <ele>511.1</ele>
        <time>2012-05-04T12:29:55Z</time>
      </trkpt>
      <trkpt lat="47.31234" lon="6.0254">
        <ele>512</ele>
        <time>2012-05-04T12:29:59Z</time>
      </trkpt>
      <trkpt lat="47.31231" lon="6.02553">
        <ele>512.8</ele>
        <time>2012-05-04T12:30:04Z</time>
      </trkpt>
      <trkpt lat="47.31229" lon="6.02563">
        <ele>512.2</ele>
        <time>2012-05-04T12:30:10Z</time>
      </trkpt>
      <trkpt lat="47.31227" lon="6.02574">
        <ele>512.2</ele>
        <time>2012-05-04T12:30:17Z</time>
      </trkpt>
      <trkpt lat="47.31228" lon="6.02584">
        <ele>512.1</ele>
        <time>2012-05-04T12:30:25Z</time>
      </trkpt>
      <trkpt lat="47.31228" lon="6.02584">
        <ele>457</ele>
        <time>2012-05-04T12:30:36Z</time>
      </trkpt>
      <trkpt lat="47.31228" lon="6.02584">
        <ele>457</ele>
        <time>2012-05-04T12:30:47Z</time>
      </trkpt>
      <trkpt lat="47.31229" lon="6.0261">
        <ele>512.7</ele>
        <time>2012-05-04T12:30:49Z</time>
      </trkpt>
      <trkpt lat="47.31226" lon="6.02618">
        <ele>513.1</ele>
        <time>2012-05-04T12:30:51Z</time>
      </trkpt>
      <trkpt lat="47.31224" lon="6.02631">
        <ele>511.6</ele>
        <time>2012-05-04T12:30:55Z</time>
      </trkpt>
      <trkpt lat="47.31222" lon="6.0264">
        <ele>510.5</ele>
        <time>2012-05-04T12:31:00Z</time>
      </trkpt>
      <trkpt lat="47.31219" lon="6.02649">
        <ele>509.2</ele>
        <time>2012-05-04T12:31:03Z</time>
      </trkpt>
      <trkpt lat="47.31214" lon="6.02656">
        <ele>508.2</ele>
        <time>2012-05-04T12:31:11Z</time>
      </trkpt>
      <trkpt lat="47.31208" lon="6.02663">
        <ele>509</ele>
        <time>2012-05-04T12:31:15Z</time>
      </trkpt>
      <trkpt lat="47.31211" lon="6.02672">
        <ele>507</ele>
        <time>2012-05-04T12:31:24Z</time>
      </trkpt>
      <trkpt lat="47.31211" lon="6.02672">
        <ele>455.1</ele>
        <time>2012-05-04T12:31:36Z</time>
      </trkpt>
      <trkpt lat="47.31211" lon="6.02672">
        <ele>455.1</ele>
        <time>2012-05-04T12:31:36Z</time>
      </trkpt>
      <trkpt lat="47.31203" lon="6.02687">
        <ele>505.2</ele>
        <time>2012-05-04T12:31:47Z</time>
      </trkpt>
      <trkpt lat="47.31199" lon="6.02696">
        <ele>506</ele>
        <time>2012-05-04T12:31:49Z</time>
      </trkpt>
      <trkpt lat="47.31193" lon="6.02699">
        <ele>507.5</ele>
        <time>2012-05-04T12:31:54Z</time>
      </trkpt>
      <trkpt lat="47.31186" lon="6.027">
        <ele>508.4</ele>
        <time>2012-05-04T12:31:58Z</time>
      </trkpt>
      <trkpt lat="47.31186" lon="6.027">
        <ele>453</ele>
        <time>2012-05-04T12:32:09Z</time>
      </trkpt>
      <trkpt lat="47.31186" lon="6.027">
        <ele>453</ele>
        <time>2012-05-04T12:32:11Z</time>
      </trkpt>
      <trkpt lat="47.31186" lon="6.027">
        <ele>453</ele>
        <time>2012-05-04T12:32:22Z</time>
      </trkpt>
      <trkpt lat="47.31186" lon="6.027">
        <ele>453</ele>
        <time>2012-05-04T12:32:37Z</time>
      </trkpt>
      <trkpt lat="47.31171" lon="6.02704">
        <ele>500.1</ele>
        <time>2012-05-04T12:32:40Z</time>
      </trkpt>
      <trkpt lat="47.31165" lon="6.02697">
        <ele>499.2</ele>
        <time>2012-05-04T12:32:43Z</time>
      </trkpt>
      <trkpt lat="47.31158" lon="6.02696">
        <ele>498.6</ele>
        <time>2012-05-04T12:32:47Z</time>
      </trkpt>
      <trkpt lat="47.31152" lon="6.02698">
        <ele>497.2</ele>
        <time>2012-05-04T12:32:50Z</time>
      </trkpt>
      <trkpt lat="47.31145" lon="6.02693">
        <ele>496.8</ele>
        <time>2012-05-04T12:32:54Z</time>
      </trkpt>
      <trkpt lat="47.3114" lon="6.02687">
        <ele>497.4</ele>
        <time>2012-05-04T12:32:59Z</time>
      </trkpt>
      <trkpt lat="47.31134" lon="6.02687">
        <ele>497.6</ele>
        <time>2012-05-04T12:33:03Z</time>
      </trkpt>
      <trkpt lat="47.31127" lon="6.02685">
        <ele>498.8</ele>
        <time>2012-05-04T12:33:07Z</time>
      </trkpt>
      <trkpt lat="47.31119" lon="6.02682">
        <ele>497.2</ele>
        <time>2012-05-04T12:33:12Z</time>
      </trkpt>
      <trkpt lat="47.31111" lon="6.02682">
        <ele>497.1</ele>
        <time>2012-05-04T12:33:19Z</time>
      </trkpt>
      <trkpt lat="47.31103" lon="6.02683">
        <ele>496.4</ele>
        <time>2012-05-04T12:33:23Z</time>
      </trkpt>
      <trkpt lat="47.31094" lon="6.02677">
        <ele>494.4</ele>
        <time>2012-05-04T12:33:29Z</time>
      </trkpt>
      <trkpt lat="47.31089" lon="6.02669">
        <ele>494.9</ele>
        <time>2012-05-04T12:33:37Z</time>
      </trkpt>
      <trkpt lat="47.31082" lon="6.02667">
        <ele>494.4</ele>
        <time>2012-05-04T12:33:42Z</time>
      </trkpt>
      <trkpt lat="47.31075" lon="6.02665">
        <ele>492.9</ele>
        <time>2012-05-04T12:33:48Z</time>
      </trkpt>
      <trkpt lat="47.31067" lon="6.02661">
        <ele>490</ele>
        <time>2012-05-04T12:33:55Z</time>
      </trkpt>
      <trkpt lat="47.3106" lon="6.02656">
        <ele>490.3</ele>
        <time>2012-05-04T12:34:02Z</time>
      </trkpt>
      <trkpt lat="47.31054" lon="6.02651">
        <ele>490.2</ele>
        <time>2012-05-04T12:34:08Z</time>
      </trkpt>
      <trkpt lat="47.31049" lon="6.02643">
        <ele>490.1</ele>
        <time>2012-05-04T12:34:13Z</time>
      </trkpt>
      <trkpt lat="47.31041" lon="6.02638">
        <ele>491.1</ele>
        <time>2012-05-04T12:34:17Z</time>
      </trkpt>
      <trkpt lat="47.31036" lon="6.02631">
        <ele>490.1</ele>
        <time>2012-05-04T12:34:23Z</time>
      </trkpt>
      <trkpt lat="47.31029" lon="6.02627">
        <ele>488.6</ele>
        <time>2012-05-04T12:34:31Z</time>
      </trkpt>
      <trkpt lat="47.31023" lon="6.02628">
        <ele>488.4</ele>
        <time>2012-05-04T12:34:37Z</time>
      </trkpt>
      <trkpt lat="47.31017" lon="6.02633">
        <ele>488.4</ele>
        <time>2012-05-04T12:34:43Z</time>
      </trkpt>
      <trkpt lat="47.3101" lon="6.02635">
        <ele>485.9</ele>
        <time>2012-05-04T12:34:48Z</time>
      </trkpt>
      <trkpt lat="47.31004" lon="6.02641">
        <ele>484.5</ele>
        <time>2012-05-04T12:34:53Z</time>
      </trkpt>
      <trkpt lat="47.30997" lon="6.0264">
        <ele>484.5</ele>
        <time>2012-05-04T12:34:57Z</time>
      </trkpt>
      <trkpt lat="47.3099" lon="6.0264">
        <ele>482.8</ele>
        <time>2012-05-04T12:35:02Z</time>
      </trkpt>
      <trkpt lat="47.30984" lon="6.02639">
        <ele>482.6</ele>
        <time>2012-05-04T12:35:10Z</time>
      </trkpt>
      <trkpt lat="47.30978" lon="6.02635">
        <ele>481.9</ele>
        <time>2012-05-04T12:35:14Z</time>
      </trkpt>
      <trkpt lat="47.30971" lon="6.02632">
        <ele>480.4</ele>
        <time>2012-05-04T12:35:20Z</time>
      </trkpt>
      <trkpt lat="47.30967" lon="6.02626">
        <ele>479.3</ele>
        <time>2012-05-04T12:35:26Z</time>
      </trkpt>
      <trkpt lat="47.30959" lon="6.02622">
        <ele>478.5</ele>
        <time>2012-05-04T12:35:32Z</time>
      </trkpt>
      <trkpt lat="47.30954" lon="6.02616">
        <ele>478.4</ele>
        <time>2012-05-04T12:35:37Z</time>
      </trkpt>
      <trkpt lat="47.30947" lon="6.02614">
        <ele>478.8</ele>
        <time>2012-05-04T12:35:45Z</time>
      </trkpt>
      <trkpt lat="47.30939" lon="6.02617">
        <ele>476.8</ele>
        <time>2012-05-04T12:35:49Z</time>
      </trkpt>
      <trkpt lat="47.30933" lon="6.02615">
        <ele>476.5</ele>
        <time>2012-05-04T12:35:53Z</time>
      </trkpt>
      <trkpt lat="47.30926" lon="6.02613">
        <ele>477.6</ele>
        <time>2012-05-04T12:36:01Z</time>
      </trkpt>
      <trkpt lat="47.30919" lon="6.02618">
        <ele>478</ele>
        <time>2012-05-04T12:36:07Z</time>
      </trkpt>
      <trkpt lat="47.30913" lon="6.0262">
        <ele>476.9</ele>
        <time>2012-05-04T12:36:12Z</time>
      </trkpt>
      <trkpt lat="47.30907" lon="6.02626">
        <ele>477.4</ele>
        <time>2012-05-04T12:36:18Z</time>
      </trkpt>
      <trkpt lat="47.30901" lon="6.02633">
        <ele>477.1</ele>
        <time>2012-05-04T12:36:23Z</time>
      </trkpt>
      <trkpt lat="47.30895" lon="6.0264">
        <ele>477.8</ele>
        <time>2012-05-04T12:36:29Z</time>
      </trkpt>
      <trkpt lat="47.30888" lon="6.02644">
        <ele>477.6</ele>
        <time>2012-05-04T12:36:33Z</time>
      </trkpt>
      <trkpt lat="47.30882" lon="6.02648">
        <ele>476.7</ele>
        <time>2012-05-04T12:36:38Z</time>
      </trkpt>
      <trkpt lat="47.30876" lon="6.02651">
        <ele>475.5</ele>
        <time>2012-05-04T12:36:46Z</time>
      </trkpt>
      <trkpt lat="47.3087" lon="6.02655">
        <ele>474.3</ele>
        <time>2012-05-04T12:36:51Z</time>
      </trkpt>
      <trkpt lat="47.30863" lon="6.02656">
        <ele>473.9</ele>
        <time>2012-05-04T12:36:58Z</time>
      </trkpt>
      <trkpt lat="47.30856" lon="6.02658">
        <ele>473.4</ele>
        <time>2012-05-04T12:37:03Z</time>
      </trkpt>
      <trkpt lat="47.3085" lon="6.02662">
        <ele>473.1</ele>
        <time>2012-05-04T12:37:08Z</time>
      </trkpt>
      <trkpt lat="47.30844" lon="6.02663">
        <ele>471.4</ele>
        <time>2012-05-04T12:37:14Z</time>
      </trkpt>
      <trkpt lat="47.30838" lon="6.02668">
        <ele>470.7</ele>
        <time>2012-05-04T12:37:17Z</time>
      </trkpt>
      <trkpt lat="47.30831" lon="6.02665">
        <ele>468.3</ele>
        <time>2012-05-04T12:37:23Z</time>
      </trkpt>
      <trkpt lat="47.30823" lon="6.02663">
        <ele>467.9</ele>
        <time>2012-05-04T12:37:30Z</time>
      </trkpt>
      <trkpt lat="47.30816" lon="6.02662">
        <ele>467.8</ele>
        <time>2012-05-04T12:37:35Z</time>
      </trkpt>
      <trkpt lat="47.3081" lon="6.0266">
        <ele>466.8</ele>
        <time>2012-05-04T12:37:40Z</time>
      </trkpt>
      <trkpt lat="47.30803" lon="6.02657">
        <ele>464.9</ele>
        <time>2012-05-04T12:37:47Z</time>
      </trkpt>
      <trkpt lat="47.30796" lon="6.02656">
        <ele>464.4</ele>
        <time>2012-05-04T12:37:51Z</time>
      </trkpt>
      <trkpt lat="47.3079" lon="6.02651">
        <ele>465.5</ele>
        <time>2012-05-04T12:37:56Z</time>
      </trkpt>
      <trkpt lat="47.30784" lon="6.0265">
        <ele>465.8</ele>
        <time>2012-05-04T12:38:01Z</time>
      </trkpt>
      <trkpt lat="47.30777" lon="6.02646">
        <ele>465</ele>
        <time>2012-05-04T12:38:09Z</time>
      </trkpt>
      <trkpt lat="47.30771" lon="6.02646">
        <ele>465.2</ele>
        <time>2012-05-04T12:38:13Z</time>
      </trkpt>
      <trkpt lat="47.30771" lon="6.02646">
        <ele>414.4</ele>
        <time>2012-05-04T12:48:20Z</time>
      </trkpt>
      <trkpt lat="47.30464" lon="6.02401">
        <ele>468.8</ele>
        <time>2012-05-04T12:48:25Z</time>
      </trkpt>
      <trkpt lat="47.30464" lon="6.02401">
        <ele>420.9</ele>
        <time>2012-05-04T12:48:36Z</time>
      </trkpt>
      <trkpt lat="47.30464" lon="6.02401">
        <ele>420.9</ele>
        <time>2012-05-04T12:48:37Z</time>
      </trkpt>
      <trkpt lat="47.30454" lon="6.02386">
        <ele>469.2</ele>
        <time>2012-05-04T12:48:41Z</time>
      </trkpt>
      <trkpt lat="47.30452" lon="6.02377">
        <ele>470.1</ele>
        <time>2012-05-04T12:48:47Z</time>
      </trkpt>
      <trkpt lat="47.3045" lon="6.02368">
        <ele>469.8</ele>
        <time>2012-05-04T12:48:53Z</time>
      </trkpt>
      <trkpt lat="47.30446" lon="6.02359">
        <ele>469.1</ele>
        <time>2012-05-04T12:48:59Z</time>
      </trkpt>
      <trkpt lat="47.30441" lon="6.02351">
        <ele>467.3</ele>
        <time>2012-05-04T12:49:06Z</time>
      </trkpt>
      <trkpt lat="47.30438" lon="6.02342">
        <ele>466.4</ele>
        <time>2012-05-04T12:49:10Z</time>
      </trkpt>
      <trkpt lat="47.30435" lon="6.02333">
        <ele>465.8</ele>
        <time>2012-05-04T12:49:16Z</time>
      </trkpt>
      <trkpt lat="47.30434" lon="6.02323">
        <ele>465.3</ele>
        <time>2012-05-04T12:49:22Z</time>
      </trkpt>
      <trkpt lat="47.30434" lon="6.02323">
        <ele>422.4</ele>
        <time>2012-05-04T12:49:34Z</time>
      </trkpt>
      <trkpt lat="47.30434" lon="6.02323">
        <ele>422.4</ele>
        <time>2012-05-04T12:50:36Z</time>
      </trkpt>
      <trkpt lat="47.30423" lon="6.02323">
        <ele>467</ele>
        <time>2012-05-04T12:50:43Z</time>
      </trkpt>
      <trkpt lat="47.30418" lon="6.02331">
        <ele>467.6</ele>
        <time>2012-05-04T12:50:49Z</time>
      </trkpt>
      <trkpt lat="47.30414" lon="6.02339">
        <ele>469.5</ele>
        <time>2012-05-04T12:50:55Z</time>
      </trkpt>
      <trkpt lat="47.30408" lon="6.02346">
        <ele>470.1</ele>
        <time>2012-05-04T12:51:01Z</time>
      </trkpt>
      <trkpt lat="47.30401" lon="6.0235">
        <ele>469.2</ele>
        <time>2012-05-04T12:51:07Z</time>
      </trkpt>
      <trkpt lat="47.30396" lon="6.02357">
        <ele>470.4</ele>
        <time>2012-05-04T12:51:12Z</time>
      </trkpt>
      <trkpt lat="47.30391" lon="6.02365">
        <ele>472.6</ele>
        <time>2012-05-04T12:51:18Z</time>
      </trkpt>
      <trkpt lat="47.30386" lon="6.02374">
        <ele>474.8</ele>
        <time>2012-05-04T12:51:22Z</time>
      </trkpt>
      <trkpt lat="47.3038" lon="6.02379">
        <ele>478.4</ele>
        <time>2012-05-04T12:51:28Z</time>
      </trkpt>
      <trkpt lat="47.3038" lon="6.02379">
        <ele>424.5</ele>
        <time>2012-05-04T12:51:39Z</time>
      </trkpt>
      <trkpt lat="47.3038" lon="6.02379">
        <ele>424.5</ele>
        <time>2012-05-04T12:51:43Z</time>
      </trkpt>
      <trkpt lat="47.30371" lon="6.02394">
        <ele>476.2</ele>
        <time>2012-05-04T12:51:46Z</time>
      </trkpt>
      <trkpt lat="47.30371" lon="6.02394">
        <ele>425.5</ele>
        <time>2012-05-04T12:51:58Z</time>
      </trkpt>
      <trkpt lat="47.30371" lon="6.02394">
        <ele>425.5</ele>
        <time>2012-05-04T12:54:01Z</time>
      </trkpt>
      <trkpt lat="47.30365" lon="6.02417">
        <ele>476.9</ele>
        <time>2012-05-04T12:54:06Z</time>
      </trkpt>
      <trkpt lat="47.30365" lon="6.02427">
        <ele>478.2</ele>
        <time>2012-05-04T12:54:12Z</time>
      </trkpt>
      <trkpt lat="47.30368" lon="6.02437">
        <ele>475.7</ele>
        <time>2012-05-04T12:54:22Z</time>
      </trkpt>
      <trkpt lat="47.30373" lon="6.02443">
        <ele>476.6</ele>
        <time>2012-05-04T12:54:27Z</time>
      </trkpt>
      <trkpt lat="47.30373" lon="6.02452">
        <ele>476.9</ele>
        <time>2012-05-04T12:54:33Z</time>
      </trkpt>
      <trkpt lat="47.3037" lon="6.02461">
        <ele>476</ele>
        <time>2012-05-04T12:54:38Z</time>
      </trkpt>
      <trkpt lat="47.30364" lon="6.02467">
        <ele>477.6</ele>
        <time>2012-05-04T12:54:43Z</time>
      </trkpt>
      <trkpt lat="47.30358" lon="6.02473">
        <ele>478.5</ele>
        <time>2012-05-04T12:54:48Z</time>
      </trkpt>
      <trkpt lat="47.30352" lon="6.02481">
        <ele>478.8</ele>
        <time>2012-05-04T12:54:54Z</time>
      </trkpt>
      <trkpt lat="47.30352" lon="6.02481">
        <ele>431.3</ele>
        <time>2012-05-04T12:55:07Z</time>
      </trkpt>
      <trkpt lat="47.30352" lon="6.02481">
        <ele>431.3</ele>
        <time>2012-05-04T12:55:33Z</time>
      </trkpt>
      <trkpt lat="47.30339" lon="6.02485">
        <ele>481.3</ele>
        <time>2012-05-04T12:55:39Z</time>
      </trkpt>
      <trkpt lat="47.30332" lon="6.0249">
        <ele>482.8</ele>
        <time>2012-05-04T12:55:45Z</time>
      </trkpt>
      <trkpt lat="47.30326" lon="6.02495">
        <ele>481.6</ele>
        <time>2012-05-04T12:55:52Z</time>
      </trkpt>
      <trkpt lat="47.30321" lon="6.02502">
        <ele>483</ele>
        <time>2012-05-04T12:55:57Z</time>
      </trkpt>
      <trkpt lat="47.30318" lon="6.0251">
        <ele>485.2</ele>
        <time>2012-05-04T12:56:05Z</time>
      </trkpt>
      <trkpt lat="47.30311" lon="6.02509">
        <ele>483.8</ele>
        <time>2012-05-04T12:56:11Z</time>
      </trkpt>
      <trkpt lat="47.30305" lon="6.02516">
        <ele>485.3</ele>
        <time>2012-05-04T12:56:17Z</time>
      </trkpt>
      <trkpt lat="47.303" lon="6.02521">
        <ele>486</ele>
        <time>2012-05-04T12:56:22Z</time>
      </trkpt>
      <trkpt lat="47.30294" lon="6.02528">
        <ele>486.6</ele>
        <time>2012-05-04T12:56:31Z</time>
      </trkpt>
      <trkpt lat="47.30288" lon="6.02536">
        <ele>490.4</ele>
        <time>2012-05-04T12:56:41Z</time>
      </trkpt>
      <trkpt lat="47.30283" lon="6.02542">
        <ele>492.4</ele>
        <time>2012-05-04T12:56:49Z</time>
      </trkpt>
      <trkpt lat="47.30278" lon="6.02548">
        <ele>492.3</ele>
        <time>2012-05-04T12:56:57Z</time>
      </trkpt>
      <trkpt lat="47.30278" lon="6.02548">
        <ele>443.4</ele>
        <time>2012-05-04T12:57:08Z</time>
      </trkpt>
      <trkpt lat="47.30278" lon="6.02548">
        <ele>443.4</ele>
        <time>2012-05-04T12:57:26Z</time>
      </trkpt>
      <trkpt lat="47.30284" lon="6.02569">
        <ele>493.3</ele>
        <time>2012-05-04T12:57:28Z</time>
      </trkpt>
      <trkpt lat="47.30287" lon="6.02578">
        <ele>493</ele>
        <time>2012-05-04T12:57:31Z</time>
      </trkpt>
      <trkpt lat="47.30287" lon="6.02589">
        <ele>492.6</ele>
        <time>2012-05-04T12:57:34Z</time>
      </trkpt>
      <trkpt lat="47.3029" lon="6.02597">
        <ele>492.6</ele>
        <time>2012-05-04T12:57:39Z</time>
      </trkpt>
      <trkpt lat="47.30292" lon="6.02607">
        <ele>489.7</ele>
        <time>2012-05-04T12:57:46Z</time>
      </trkpt>
      <trkpt lat="47.30296" lon="6.02615">
        <ele>491.4</ele>
        <time>2012-05-04T12:57:56Z</time>
      </trkpt>
      <trkpt lat="47.30301" lon="6.0262">
        <ele>493.3</ele>
        <time>2012-05-04T12:58:05Z</time>
      </trkpt>
      <trkpt lat="47.30305" lon="6.02629">
        <ele>493.1</ele>
        <time>2012-05-04T12:58:11Z</time>
      </trkpt>
      <trkpt lat="47.30304" lon="6.02642">
        <ele>492.7</ele>
        <time>2012-05-04T12:58:20Z</time>
      </trkpt>
      <trkpt lat="47.30304" lon="6.02642">
        <ele>447.7</ele>
        <time>2012-05-04T12:58:32Z</time>
      </trkpt>
      <trkpt lat="47.30304" lon="6.02642">
        <ele>447.7</ele>
        <time>2012-05-04T12:58:33Z</time>
      </trkpt>
      <trkpt lat="47.30313" lon="6.02656">
        <ele>490.9</ele>
        <time>2012-05-04T12:58:37Z</time>
      </trkpt>
      <trkpt lat="47.30309" lon="6.02664">
        <ele>492.8</ele>
        <time>2012-05-04T12:58:44Z</time>
      </trkpt>
      <trkpt lat="47.30314" lon="6.02672">
        <ele>494.6</ele>
        <time>2012-05-04T12:58:52Z</time>
      </trkpt>
      <trkpt lat="47.30316" lon="6.0268">
        <ele>497.8</ele>
        <time>2012-05-04T12:58:58Z</time>
      </trkpt>
      <trkpt lat="47.30322" lon="6.02687">
        <ele>500.8</ele>
        <time>2012-05-04T12:59:05Z</time>
      </trkpt>
      <trkpt lat="47.30322" lon="6.02697">
        <ele>501.9</ele>
        <time>2012-05-04T12:59:12Z</time>
      </trkpt>
      <trkpt lat="47.30377" lon="6.02834">
        <ele>507.1</ele>
        <time>2012-05-04T13:01:15Z</time>
      </trkpt>
      <trkpt lat="47.3038" lon="6.02844">
        <ele>506.3</ele>
        <time>2012-05-04T13:01:21Z</time>
      </trkpt>
      <trkpt lat="47.30386" lon="6.02849">
        <ele>505.6</ele>
        <time>2012-05-04T13:01:26Z</time>
      </trkpt>
      <trkpt lat="47.30387" lon="6.02859">
        <ele>505.8</ele>
        <time>2012-05-04T13:01:33Z</time>
      </trkpt>
      <trkpt lat="47.30391" lon="6.02867">
        <ele>506.6</ele>
        <time>2012-05-04T13:01:40Z</time>
      </trkpt>
      <trkpt lat="47.30389" lon="6.02877">
        <ele>506.5</ele>
        <time>2012-05-04T13:01:46Z</time>
      </trkpt>
      <trkpt lat="47.3039" lon="6.02887">
        <ele>505.3</ele>
        <time>2012-05-04T13:01:52Z</time>
      </trkpt>
      <trkpt lat="47.30391" lon="6.02897">
        <ele>507.7</ele>
        <time>2012-05-04T13:02:01Z</time>
      </trkpt>
      <trkpt lat="47.30396" lon="6.02904">
        <ele>508.5</ele>
        <time>2012-05-04T13:02:06Z</time>
      </trkpt>
      <trkpt lat="47.304" lon="6.02912">
        <ele>511</ele>
        <time>2012-05-04T13:02:16Z</time>
      </trkpt>
      <trkpt lat="47.30406" lon="6.02919">
        <ele>511.7</ele>
        <time>2012-05-04T13:02:26Z</time>
      </trkpt>
      <trkpt lat="47.30412" lon="6.02926">
        <ele>513.3</ele>
        <time>2012-05-04T13:02:33Z</time>
      </trkpt>
      <trkpt lat="47.30415" lon="6.02935">
        <ele>511.3</ele>
        <time>2012-05-04T13:02:37Z</time>
      </trkpt>
      <trkpt lat="47.30421" lon="6.02941">
        <ele>511.6</ele>
        <time>2012-05-04T13:02:44Z</time>
      </trkpt>
      <trkpt lat="47.30421" lon="6.02941">
        <ele>462.2</ele>
        <time>2012-05-04T13:02:56Z</time>
      </trkpt>
      <trkpt lat="47.30421" lon="6.02941">
        <ele>462.2</ele>
        <time>2012-05-04T13:02:57Z</time>
      </trkpt>
      <trkpt lat="47.30427" lon="6.02959">
        <ele>513.5</ele>
        <time>2012-05-04T13:03:04Z</time>
      </trkpt>
      <trkpt lat="47.30431" lon="6.02968">
        <ele>515.4</ele>
        <time>2012-05-04T13:03:11Z</time>
      </trkpt>
      <trkpt lat="47.30431" lon="6.02968">
        <ele>464</ele>
        <time>2012-05-04T13:04:33Z</time>
      </trkpt>
      <trkpt lat="47.30458" lon="6.03076">
        <ele>528.9</ele>
        <time>2012-05-04T13:04:44Z</time>
      </trkpt>
      <trkpt lat="47.30458" lon="6.03076">
        <ele>469.1</ele>
        <time>2012-05-04T13:04:56Z</time>
      </trkpt>
      <trkpt lat="47.30458" lon="6.03076">
        <ele>469.1</ele>
        <time>2012-05-04T13:07:34Z</time>
      </trkpt>
      <trkpt lat="47.30441" lon="6.03048">
        <ele>524.3</ele>
        <time>2012-05-04T13:07:38Z</time>
      </trkpt>
      <trkpt lat="47.30437" lon="6.03041">
        <ele>524.1</ele>
        <time>2012-05-04T13:07:43Z</time>
      </trkpt>
      <trkpt lat="47.30431" lon="6.03033">
        <ele>526.8</ele>
        <time>2012-05-04T13:07:49Z</time>
      </trkpt>
      <trkpt lat="47.30429" lon="6.03023">
        <ele>526.7</ele>
        <time>2012-05-04T13:07:55Z</time>
      </trkpt>
      <trkpt lat="47.30423" lon="6.03016">
        <ele>525.1</ele>
        <time>2012-05-04T13:08:03Z</time>
      </trkpt>
      <trkpt lat="47.30416" lon="6.03012">
        <ele>523</ele>
        <time>2012-05-04T13:08:07Z</time>
      </trkpt>
      <trkpt lat="47.30409" lon="6.03009">
        <ele>522.4</ele>
        <time>2012-05-04T13:08:12Z</time>
      </trkpt>
      <trkpt lat="47.30409" lon="6.03009">
        <ele>469.2</ele>
        <time>2012-05-04T13:08:24Z</time>
      </trkpt>
      <trkpt lat="47.30409" lon="6.03009">
        <ele>469.2</ele>
        <time>2012-05-04T13:08:24Z</time>
      </trkpt>
      <trkpt lat="47.30409" lon="6.03009">
        <ele>469.2</ele>
        <time>2012-05-04T13:08:36Z</time>
      </trkpt>
      <trkpt lat="47.30409" lon="6.03009">
        <ele>469.2</ele>
        <time>2012-05-04T13:10:16Z</time>
      </trkpt>
      <trkpt lat="47.30396" lon="6.02988">
        <ele>528.2</ele>
        <time>2012-05-04T13:10:20Z</time>
      </trkpt>
      <trkpt lat="47.30391" lon="6.0298">
        <ele>529.2</ele>
        <time>2012-05-04T13:10:26Z</time>
      </trkpt>
      <trkpt lat="47.30388" lon="6.02971">
        <ele>530.6</ele>
        <time>2012-05-04T13:10:32Z</time>
      </trkpt>
      <trkpt lat="47.30388" lon="6.02961">
        <ele>531.1</ele>
        <time>2012-05-04T13:10:39Z</time>
      </trkpt>
      <trkpt lat="47.30386" lon="6.02952">
        <ele>532.1</ele>
        <time>2012-05-04T13:10:45Z</time>
      </trkpt>
      <trkpt lat="47.30382" lon="6.02942">
        <ele>534.1</ele>
        <time>2012-05-04T13:10:54Z</time>
      </trkpt>
      <trkpt lat="47.30379" lon="6.02934">
        <ele>532.9</ele>
        <time>2012-05-04T13:11:00Z</time>
      </trkpt>
      <trkpt lat="47.30379" lon="6.02934">
        <ele>473.6</ele>
        <time>2012-05-04T13:11:12Z</time>
      </trkpt>
      <trkpt lat="47.30379" lon="6.02934">
        <ele>473.6</ele>
        <time>2012-05-04T13:11:13Z</time>
      </trkpt>
      <trkpt lat="47.30372" lon="6.0292">
        <ele>531.3</ele>
        <time>2012-05-04T13:11:19Z</time>
      </trkpt>
      <trkpt lat="47.30368" lon="6.0291">
        <ele>531.9</ele>
        <time>2012-05-04T13:11:24Z</time>
      </trkpt>
      <trkpt lat="47.30362" lon="6.02902">
        <ele>530.5</ele>
        <time>2012-05-04T13:11:30Z</time>
      </trkpt>
      <trkpt lat="47.30359" lon="6.02893">
        <ele>531</ele>
        <time>2012-05-04T13:11:38Z</time>
      </trkpt>
      <trkpt lat="47.30353" lon="6.02885">
        <ele>532.7</ele>
        <time>2012-05-04T13:11:45Z</time>
      </trkpt>
      <trkpt lat="47.30348" lon="6.02879">
        <ele>532.7</ele>
        <time>2012-05-04T13:11:51Z</time>
      </trkpt>
      <trkpt lat="47.30346" lon="6.0287">
        <ele>531.8</ele>
        <time>2012-05-04T13:11:57Z</time>
      </trkpt>
      <trkpt lat="47.30346" lon="6.0287">
        <ele>479.1</ele>
        <time>2012-05-04T13:12:08Z</time>
      </trkpt>
      <trkpt lat="47.30346" lon="6.0287">
        <ele>479.1</ele>
        <time>2012-05-04T13:12:09Z</time>
      </trkpt>
      <trkpt lat="47.30335" lon="6.02857">
        <ele>533.1</ele>
        <time>2012-05-04T13:12:15Z</time>
      </trkpt>
      <trkpt lat="47.30332" lon="6.02848">
        <ele>531.9</ele>
        <time>2012-05-04T13:12:23Z</time>
      </trkpt>
      <trkpt lat="47.30328" lon="6.02841">
        <ele>533.8</ele>
        <time>2012-05-04T13:12:30Z</time>
      </trkpt>
      <trkpt lat="47.30328" lon="6.02841">
        <ele>482.4</ele>
        <time>2012-05-04T13:12:42Z</time>
      </trkpt>
      <trkpt lat="47.30328" lon="6.02841">
        <ele>482.4</ele>
        <time>2012-05-04T13:12:43Z</time>
      </trkpt>
      <trkpt lat="47.30328" lon="6.02841">
        <ele>482.4</ele>
        <time>2012-05-04T13:12:55Z</time>
      </trkpt>
      <trkpt lat="47.30328" lon="6.02841">
        <ele>482.4</ele>
        <time>2012-05-04T13:13:01Z</time>
      </trkpt>
      <trkpt lat="47.30318" lon="6.02814">
        <ele>535.4</ele>
        <time>2012-05-04T13:13:04Z</time>
      </trkpt>
      <trkpt lat="47.30316" lon="6.02805">
        <ele>535.1</ele>
        <time>2012-05-04T13:13:08Z</time>
      </trkpt>
      <trkpt lat="47.30309" lon="6.02801">
        <ele>533.5</ele>
        <time>2012-05-04T13:13:11Z</time>
      </trkpt>
      <trkpt lat="47.30304" lon="6.02792">
        <ele>534.8</ele>
        <time>2012-05-04T13:13:15Z</time>
      </trkpt>
      <trkpt lat="47.30299" lon="6.02784">
        <ele>534.6</ele>
        <time>2012-05-04T13:13:20Z</time>
      </trkpt>
      <trkpt lat="47.30295" lon="6.02776">
        <ele>535.9</ele>
        <time>2012-05-04T13:13:26Z</time>
      </trkpt>
      <trkpt lat="47.3029" lon="6.02769">
        <ele>536.6</ele>
        <time>2012-05-04T13:13:31Z</time>
      </trkpt>
      <trkpt lat="47.30286" lon="6.02759">
        <ele>536.8</ele>
        <time>2012-05-04T13:13:38Z</time>
      </trkpt>
      <trkpt lat="47.30281" lon="6.02754">
        <ele>536.9</ele>
        <time>2012-05-04T13:13:48Z</time>
      </trkpt>
      <trkpt lat="47.30281" lon="6.02754">
        <ele>484.1</ele>
        <time>2012-05-04T13:14:00Z</time>
      </trkpt>
      <trkpt lat="47.30281" lon="6.02754">
        <ele>484.1</ele>
        <time>2012-05-04T13:14:07Z</time>
      </trkpt>
      <trkpt lat="47.30271" lon="6.02738">
        <ele>537.9</ele>
        <time>2012-05-04T13:14:09Z</time>
      </trkpt>
      <trkpt lat="47.30268" lon="6.02729">
        <ele>537.5</ele>
        <time>2012-05-04T13:14:13Z</time>
      </trkpt>
      <trkpt lat="47.30265" lon="6.0272">
        <ele>537.3</ele>
        <time>2012-05-04T13:14:18Z</time>
      </trkpt>
      <trkpt lat="47.30264" lon="6.02711">
        <ele>536.2</ele>
        <time>2012-05-04T13:14:29Z</time>
      </trkpt>
      <trkpt lat="47.30264" lon="6.02711">
        <ele>482.8</ele>
        <time>2012-05-04T13:14:40Z</time>
      </trkpt>
      <trkpt lat="47.30264" lon="6.02711">
        <ele>482.8</ele>
        <time>2012-05-04T13:15:01Z</time>
      </trkpt>
      <trkpt lat="47.30251" lon="6.02694">
        <ele>539.5</ele>
        <time>2012-05-04T13:15:04Z</time>
      </trkpt>
      <trkpt lat="47.30246" lon="6.02686">
        <ele>539.4</ele>
        <time>2012-05-04T13:15:07Z</time>
      </trkpt>
      <trkpt lat="47.30245" lon="6.02676">
        <ele>539.9</ele>
        <time>2012-05-04T13:15:11Z</time>
      </trkpt>
      <trkpt lat="47.30237" lon="6.0267">
        <ele>539</ele>
        <time>2012-05-04T13:15:17Z</time>
      </trkpt>
      <trkpt lat="47.30232" lon="6.02662">
        <ele>541.1</ele>
        <time>2012-05-04T13:15:23Z</time>
      </trkpt>
      <trkpt lat="47.30232" lon="6.02662">
        <ele>485.2</ele>
        <time>2012-05-04T13:15:35Z</time>
      </trkpt>
      <trkpt lat="47.30232" lon="6.02662">
        <ele>485.2</ele>
        <time>2012-05-04T13:15:57Z</time>
      </trkpt>
      <trkpt lat="47.30215" lon="6.02651">
        <ele>534</ele>
        <time>2012-05-04T13:16:00Z</time>
      </trkpt>
      <trkpt lat="47.3021" lon="6.02639">
        <ele>535.2</ele>
        <time>2012-05-04T13:16:04Z</time>
      </trkpt>
      <trkpt lat="47.30204" lon="6.02629">
        <ele>535.3</ele>
        <time>2012-05-04T13:16:08Z</time>
      </trkpt>
      <trkpt lat="47.30202" lon="6.02618">
        <ele>534.8</ele>
        <time>2012-05-04T13:16:13Z</time>
      </trkpt>
      <trkpt lat="47.30196" lon="6.02609">
        <ele>533.6</ele>
        <time>2012-05-04T13:16:18Z</time>
      </trkpt>
      <trkpt lat="47.30191" lon="6.02602">
        <ele>534.2</ele>
        <time>2012-05-04T13:16:22Z</time>
      </trkpt>
      <trkpt lat="47.30188" lon="6.02594">
        <ele>533.1</ele>
        <time>2012-05-04T13:16:27Z</time>
      </trkpt>
      <trkpt lat="47.30186" lon="6.02584">
        <ele>533.8</ele>
        <time>2012-05-04T13:16:32Z</time>
      </trkpt>
      <trkpt lat="47.30181" lon="6.02577">
        <ele>535.9</ele>
        <time>2012-05-04T13:16:37Z</time>
      </trkpt>
      <trkpt lat="47.3018" lon="6.02565">
        <ele>533.7</ele>
        <time>2012-05-04T13:16:45Z</time>
      </trkpt>
      <trkpt lat="47.30177" lon="6.02556">
        <ele>534.3</ele>
        <time>2012-05-04T13:16:49Z</time>
      </trkpt>
      <trkpt lat="47.30172" lon="6.02549">
        <ele>535.3</ele>
        <time>2012-05-04T13:16:55Z</time>
      </trkpt>
      <trkpt lat="47.30171" lon="6.02538">
        <ele>534.7</ele>
        <time>2012-05-04T13:17:01Z</time>
      </trkpt>
      <trkpt lat="47.30172" lon="6.02528">
        <ele>535.3</ele>
        <time>2012-05-04T13:17:06Z</time>
      </trkpt>
      <trkpt lat="47.30171" lon="6.02519">
        <ele>536.5</ele>
        <time>2012-05-04T13:17:11Z</time>
      </trkpt>
      <trkpt lat="47.30167" lon="6.02509">
        <ele>536.2</ele>
        <time>2012-05-04T13:17:20Z</time>
      </trkpt>
      <trkpt lat="47.30165" lon="6.02499">
        <ele>537.2</ele>
        <time>2012-05-04T13:17:25Z</time>
      </trkpt>
      <trkpt lat="47.30165" lon="6.02489">
        <ele>537</ele>
        <time>2012-05-04T13:17:31Z</time>
      </trkpt>
      <trkpt lat="47.30164" lon="6.02478">
        <ele>538.6</ele>
        <time>2012-05-04T13:17:38Z</time>
      </trkpt>
      <trkpt lat="47.30161" lon="6.02467">
        <ele>539.4</ele>
        <time>2012-05-04T13:17:44Z</time>
      </trkpt>
      <trkpt lat="47.30157" lon="6.02459">
        <ele>537.8</ele>
        <time>2012-05-04T13:17:48Z</time>
      </trkpt>
      <trkpt lat="47.3015" lon="6.02456">
        <ele>537.2</ele>
        <time>2012-05-04T13:17:53Z</time>
      </trkpt>
      <trkpt lat="47.30144" lon="6.02451">
        <ele>535.8</ele>
        <time>2012-05-04T13:17:59Z</time>
      </trkpt>
      <trkpt lat="47.30139" lon="6.02443">
        <ele>537.6</ele>
        <time>2012-05-04T13:18:05Z</time>
      </trkpt>
      <trkpt lat="47.30135" lon="6.02434">
        <ele>539.9</ele>
        <time>2012-05-04T13:18:11Z</time>
      </trkpt>
      <trkpt lat="47.3013" lon="6.02428">
        <ele>540.2</ele>
        <time>2012-05-04T13:18:18Z</time>
      </trkpt>
      <trkpt lat="47.30125" lon="6.02418">
        <ele>538.4</ele>
        <time>2012-05-04T13:18:23Z</time>
      </trkpt>
      <trkpt lat="47.30121" lon="6.02408">
        <ele>538.2</ele>
        <time>2012-05-04T13:18:28Z</time>
      </trkpt>
      <trkpt lat="47.3012" lon="6.02399">
        <ele>536.5</ele>
        <time>2012-05-04T13:18:35Z</time>
      </trkpt>
      <trkpt lat="47.30116" lon="6.02391">
        <ele>537.6</ele>
        <time>2012-05-04T13:18:42Z</time>
      </trkpt>
      <trkpt lat="47.30114" lon="6.02381">
        <ele>537.3</ele>
        <time>2012-05-04T13:18:49Z</time>
      </trkpt>
      <trkpt lat="47.3011" lon="6.02372">
        <ele>536.3</ele>
        <time>2012-05-04T13:18:55Z</time>
      </trkpt>
      <trkpt lat="47.30105" lon="6.02365">
        <ele>535.7</ele>
        <time>2012-05-04T13:19:01Z</time>
      </trkpt>
      <trkpt lat="47.30103" lon="6.02353">
        <ele>535.8</ele>
        <time>2012-05-04T13:19:07Z</time>
      </trkpt>
      <trkpt lat="47.30099" lon="6.02344">
        <ele>534.8</ele>
        <time>2012-05-04T13:19:12Z</time>
      </trkpt>
      <trkpt lat="47.30095" lon="6.02337">
        <ele>532.7</ele>
        <time>2012-05-04T13:19:17Z</time>
      </trkpt>
      <trkpt lat="47.3009" lon="6.02331">
        <ele>532.5</ele>
        <time>2012-05-04T13:19:22Z</time>
      </trkpt>
      <trkpt lat="47.30084" lon="6.02325">
        <ele>532.8</ele>
        <time>2012-05-04T13:19:27Z</time>
      </trkpt>
      <trkpt lat="47.30081" lon="6.02317">
        <ele>533.6</ele>
        <time>2012-05-04T13:19:35Z</time>
      </trkpt>
      <trkpt lat="47.30078" lon="6.02306">
        <ele>531.7</ele>
        <time>2012-05-04T13:19:42Z</time>
      </trkpt>
      <trkpt lat="47.30075" lon="6.02295">
        <ele>529.8</ele>
        <time>2012-05-04T13:19:48Z</time>
      </trkpt>
      <trkpt lat="47.30072" lon="6.02286">
        <ele>529.4</ele>
        <time>2012-05-04T13:19:53Z</time>
      </trkpt>
      <trkpt lat="47.3007" lon="6.02278">
        <ele>530.1</ele>
        <time>2012-05-04T13:20:00Z</time>
      </trkpt>
      <trkpt lat="47.30063" lon="6.02273">
        <ele>529.7</ele>
        <time>2012-05-04T13:20:04Z</time>
      </trkpt>
      <trkpt lat="47.3006" lon="6.02263">
        <ele>530.5</ele>
        <time>2012-05-04T13:20:11Z</time>
      </trkpt>
      <trkpt lat="47.30059" lon="6.02253">
        <ele>527.9</ele>
        <time>2012-05-04T13:20:18Z</time>
      </trkpt>
      <trkpt lat="47.30055" lon="6.02243">
        <ele>525.1</ele>
        <time>2012-05-04T13:20:23Z</time>
      </trkpt>
      <trkpt lat="47.30052" lon="6.02235">
        <ele>527.4</ele>
        <time>2012-05-04T13:20:29Z</time>
      </trkpt>
      <trkpt lat="47.30052" lon="6.02235">
        <ele>467.8</ele>
        <time>2012-05-04T13:20:41Z</time>
      </trkpt>
      <trkpt lat="47.30052" lon="6.02235">
        <ele>467.8</ele>
        <time>2012-05-04T13:21:07Z</time>
      </trkpt>
      <trkpt lat="47.30038" lon="6.02213">
        <ele>526.4</ele>
        <time>2012-05-04T13:21:09Z</time>
      </trkpt>
      <trkpt lat="47.30032" lon="6.02205">
        <ele>526.6</ele>
        <time>2012-05-04T13:21:12Z</time>
      </trkpt>
      <trkpt lat="47.30027" lon="6.02197">
        <ele>526.1</ele>
        <time>2012-05-04T13:21:15Z</time>
      </trkpt>
      <trkpt lat="47.30023" lon="6.02189">
        <ele>527.4</ele>
        <time>2012-05-04T13:21:21Z</time>
      </trkpt>
      <trkpt lat="47.3002" lon="6.02177">
        <ele>526.5</ele>
        <time>2012-05-04T13:21:28Z</time>
      </trkpt>
      <trkpt lat="47.30019" lon="6.02167">
        <ele>527.9</ele>
        <time>2012-05-04T13:21:32Z</time>
      </trkpt>
      <trkpt lat="47.30014" lon="6.02161">
        <ele>527.6</ele>
        <time>2012-05-04T13:21:36Z</time>
      </trkpt>
      <trkpt lat="47.30009" lon="6.02154">
        <ele>525.9</ele>
        <time>2012-05-04T13:21:41Z</time>
      </trkpt>
      <trkpt lat="47.30004" lon="6.02147">
        <ele>525.7</ele>
        <time>2012-05-04T13:21:48Z</time>
      </trkpt>
      <trkpt lat="47.30001" lon="6.02139">
        <ele>523.8</ele>
        <time>2012-05-04T13:21:52Z</time>
      </trkpt>
      <trkpt lat="47.29998" lon="6.0213">
        <ele>523.8</ele>
        <time>2012-05-04T13:21:59Z</time>
      </trkpt>
      <trkpt lat="47.29993" lon="6.02126">
        <ele>525.6</ele>
        <time>2012-05-04T13:22:06Z</time>
      </trkpt>
      <trkpt lat="47.29989" lon="6.02115">
        <ele>524.5</ele>
        <time>2012-05-04T13:22:13Z</time>
      </trkpt>
      <trkpt lat="47.29989" lon="6.02105">
        <ele>522.9</ele>
        <time>2012-05-04T13:22:21Z</time>
      </trkpt>
      <trkpt lat="47.29985" lon="6.02097">
        <ele>522.4</ele>
        <time>2012-05-04T13:22:28Z</time>
      </trkpt>
      <trkpt lat="47.29982" lon="6.02089">
        <ele>522.2</ele>
        <time>2012-05-04T13:22:33Z</time>
      </trkpt>
      <trkpt lat="47.2998" lon="6.02078">
        <ele>521.8</ele>
        <time>2012-05-04T13:22:41Z</time>
      </trkpt>
      <trkpt lat="47.29981" lon="6.02067">
        <ele>521</ele>
        <time>2012-05-04T13:22:47Z</time>
      </trkpt>
      <trkpt lat="47.29977" lon="6.02058">
        <ele>518.4</ele>
        <time>2012-05-04T13:22:52Z</time>
      </trkpt>
      <trkpt lat="47.29976" lon="6.02046">
        <ele>516.6</ele>
        <time>2012-05-04T13:22:59Z</time>
      </trkpt>
      <trkpt lat="47.29977" lon="6.02037">
        <ele>517</ele>
        <time>2012-05-04T13:23:04Z</time>
      </trkpt>
      <trkpt lat="47.29978" lon="6.02027">
        <ele>515.6</ele>
        <time>2012-05-04T13:23:15Z</time>
      </trkpt>
      <trkpt lat="47.29978" lon="6.02016">
        <ele>516.4</ele>
        <time>2012-05-04T13:23:21Z</time>
      </trkpt>
      <trkpt lat="47.29978" lon="6.02016">
        <ele>447.5</ele>
        <time>2012-05-04T13:23:32Z</time>
      </trkpt>
      <trkpt lat="47.29978" lon="6.02016">
        <ele>447.5</ele>
        <time>2012-05-04T13:23:50Z</time>
      </trkpt>
      <trkpt lat="47.29972" lon="6.01993">
        <ele>515.7</ele>
        <time>2012-05-04T13:23:52Z</time>
      </trkpt>
      <trkpt lat="47.2997" lon="6.01983">
        <ele>512</ele>
        <time>2012-05-04T13:24:01Z</time>
      </trkpt>
      <trkpt lat="47.2997" lon="6.01972">
        <ele>511.5</ele>
        <time>2012-05-04T13:24:05Z</time>
      </trkpt>
      <trkpt lat="47.29969" lon="6.01963">
        <ele>512.6</ele>
        <time>2012-05-04T13:24:09Z</time>
      </trkpt>
      <trkpt lat="47.29967" lon="6.01954">
        <ele>513</ele>
        <time>2012-05-04T13:24:12Z</time>
      </trkpt>
      <trkpt lat="47.29965" lon="6.01945">
        <ele>510.7</ele>
        <time>2012-05-04T13:24:20Z</time>
      </trkpt>
      <trkpt lat="47.29964" lon="6.01934">
        <ele>511.7</ele>
        <time>2012-05-04T13:24:26Z</time>
      </trkpt>
      <trkpt lat="47.29961" lon="6.01925">
        <ele>511.5</ele>
        <time>2012-05-04T13:24:33Z</time>
      </trkpt>
      <trkpt lat="47.29958" lon="6.01915">
        <ele>507.7</ele>
        <time>2012-05-04T13:24:37Z</time>
      </trkpt>
      <trkpt lat="47.29962" lon="6.01907">
        <ele>504.1</ele>
        <time>2012-05-04T13:24:43Z</time>
      </trkpt>
      <trkpt lat="47.29962" lon="6.01897">
        <ele>504.9</ele>
        <time>2012-05-04T13:24:48Z</time>
      </trkpt>
      <trkpt lat="47.29966" lon="6.01888">
        <ele>505.8</ele>
        <time>2012-05-04T13:24:55Z</time>
      </trkpt>
      <trkpt lat="47.2997" lon="6.01878">
        <ele>506.1</ele>
        <time>2012-05-04T13:25:00Z</time>
      </trkpt>
      <trkpt lat="47.29967" lon="6.01869">
        <ele>506.7</ele>
        <time>2012-05-04T13:25:07Z</time>
      </trkpt>
      <trkpt lat="47.29962" lon="6.01863">
        <ele>506.5</ele>
        <time>2012-05-04T13:25:12Z</time>
      </trkpt>
      <trkpt lat="47.29958" lon="6.01856">
        <ele>507</ele>
        <time>2012-05-04T13:25:16Z</time>
      </trkpt>
      <trkpt lat="47.29956" lon="6.01846">
        <ele>506.3</ele>
        <time>2012-05-04T13:25:22Z</time>
      </trkpt>
      <trkpt lat="47.29956" lon="6.01846">
        <ele>438.6</ele>
        <time>2012-05-04T13:25:34Z</time>
      </trkpt>
      <trkpt lat="47.29956" lon="6.01846">
        <ele>438.6</ele>
        <time>2012-05-04T13:25:35Z</time>
      </trkpt>
      <trkpt lat="47.29956" lon="6.01846">
        <ele>438.6</ele>
        <time>2012-05-04T13:25:47Z</time>
      </trkpt>
      <trkpt lat="47.29956" lon="6.01846">
        <ele>438.6</ele>
        <time>2012-05-04T13:25:48Z</time>
      </trkpt>
      <trkpt lat="47.29951" lon="6.01817">
        <ele>504.4</ele>
        <time>2012-05-04T13:25:50Z</time>
      </trkpt>
      <trkpt lat="47.29948" lon="6.01807">
        <ele>504</ele>
        <time>2012-05-04T13:25:53Z</time>
      </trkpt>
      <trkpt lat="47.29948" lon="6.01797">
        <ele>502.7</ele>
        <time>2012-05-04T13:25:57Z</time>
      </trkpt>
      <trkpt lat="47.29949" lon="6.01788">
        <ele>502.4</ele>
        <time>2012-05-04T13:26:04Z</time>
      </trkpt>
      <trkpt lat="47.29949" lon="6.01776">
        <ele>501.7</ele>
        <time>2012-05-04T13:26:10Z</time>
      </trkpt>
      <trkpt lat="47.29948" lon="6.01765">
        <ele>499.6</ele>
        <time>2012-05-04T13:26:14Z</time>
      </trkpt>
      <trkpt lat="47.29944" lon="6.01757">
        <ele>499.6</ele>
        <time>2012-05-04T13:26:17Z</time>
      </trkpt>
      <trkpt lat="47.29942" lon="6.01748">
        <ele>497</ele>
        <time>2012-05-04T13:26:24Z</time>
      </trkpt>
      <trkpt lat="47.29939" lon="6.01739">
        <ele>497.8</ele>
        <time>2012-05-04T13:26:34Z</time>
      </trkpt>
      <trkpt lat="47.29934" lon="6.01732">
        <ele>497.6</ele>
        <time>2012-05-04T13:26:38Z</time>
      </trkpt>
      <trkpt lat="47.29929" lon="6.01727">
        <ele>497.8</ele>
        <time>2012-05-04T13:26:42Z</time>
      </trkpt>
      <trkpt lat="47.29923" lon="6.01719">
        <ele>497.5</ele>
        <time>2012-05-04T13:26:47Z</time>
      </trkpt>
      <trkpt lat="47.29918" lon="6.01712">
        <ele>495.3</ele>
        <time>2012-05-04T13:26:52Z</time>
      </trkpt>
      <trkpt lat="47.29914" lon="6.01703">
        <ele>494.5</ele>
        <time>2012-05-04T13:26:58Z</time>
      </trkpt>
      <trkpt lat="47.29909" lon="6.01696">
        <ele>494</ele>
        <time>2012-05-04T13:27:05Z</time>
      </trkpt>
      <trkpt lat="47.29907" lon="6.01685">
        <ele>493.5</ele>
        <time>2012-05-04T13:27:12Z</time>
      </trkpt>
      <trkpt lat="47.299" lon="6.01683">
        <ele>492.8</ele>
        <time>2012-05-04T13:27:16Z</time>
      </trkpt>
      <trkpt lat="47.29895" lon="6.01677">
        <ele>493.7</ele>
        <time>2012-05-04T13:27:20Z</time>
      </trkpt>
      <trkpt lat="47.29891" lon="6.01669">
        <ele>493</ele>
        <time>2012-05-04T13:27:26Z</time>
      </trkpt>
      <trkpt lat="47.29889" lon="6.01657">
        <ele>488.5</ele>
        <time>2012-05-04T13:27:34Z</time>
      </trkpt>
      <trkpt lat="47.29889" lon="6.01657">
        <ele>435.7</ele>
        <time>2012-05-04T13:27:46Z</time>
      </trkpt>
      <trkpt lat="47.29889" lon="6.01657">
        <ele>435.7</ele>
        <time>2012-05-04T13:27:48Z</time>
      </trkpt>
      <trkpt lat="47.29889" lon="6.01657">
        <ele>435.7</ele>
        <time>2012-05-04T13:28:00Z</time>
      </trkpt>
      <trkpt lat="47.29889" lon="6.01657">
        <ele>435.7</ele>
        <time>2012-05-04T13:28:11Z</time>
      </trkpt>
      <trkpt lat="47.29875" lon="6.0164">
        <ele>488.8</ele>
        <time>2012-05-04T13:28:15Z</time>
      </trkpt>
      <trkpt lat="47.2987" lon="6.01634">
        <ele>486.9</ele>
        <time>2012-05-04T13:28:20Z</time>
      </trkpt>
      <trkpt lat="47.29866" lon="6.01627">
        <ele>487.2</ele>
        <time>2012-05-04T13:28:25Z</time>
      </trkpt>
      <trkpt lat="47.29861" lon="6.01619">
        <ele>485.6</ele>
        <time>2012-05-04T13:28:32Z</time>
      </trkpt>
      <trkpt lat="47.29854" lon="6.01613">
        <ele>485.9</ele>
        <time>2012-05-04T13:28:38Z</time>
      </trkpt>
      <trkpt lat="47.29852" lon="6.01604">
        <ele>484.6</ele>
        <time>2012-05-04T13:28:43Z</time>
      </trkpt>
      <trkpt lat="47.29847" lon="6.01595">
        <ele>484.9</ele>
        <time>2012-05-04T13:28:49Z</time>
      </trkpt>
      <trkpt lat="47.29844" lon="6.01587">
        <ele>483.7</ele>
        <time>2012-05-04T13:28:56Z</time>
      </trkpt>
      <trkpt lat="47.29837" lon="6.01581">
        <ele>483.7</ele>
        <time>2012-05-04T13:29:05Z</time>
      </trkpt>
      <trkpt lat="47.2983" lon="6.01576">
        <ele>482.8</ele>
        <time>2012-05-04T13:29:10Z</time>
      </trkpt>
      <trkpt lat="47.29825" lon="6.0157">
        <ele>482.5</ele>
        <time>2012-05-04T13:29:15Z</time>
      </trkpt>
      <trkpt lat="47.2982" lon="6.01563">
        <ele>483.8</ele>
        <time>2012-05-04T13:29:20Z</time>
      </trkpt>
      <trkpt lat="47.29816" lon="6.01552">
        <ele>482</ele>
        <time>2012-05-04T13:29:26Z</time>
      </trkpt>
      <trkpt lat="47.29811" lon="6.01544">
        <ele>482.2</ele>
        <time>2012-05-04T13:29:31Z</time>
      </trkpt>
      <trkpt lat="47.29809" lon="6.01533">
        <ele>481.1</ele>
        <time>2012-05-04T13:29:39Z</time>
      </trkpt>
      <trkpt lat="47.29808" lon="6.01524">
        <ele>480.1</ele>
        <time>2012-05-04T13:29:43Z</time>
      </trkpt>
      <trkpt lat="47.29804" lon="6.01516">
        <ele>481.3</ele>
        <time>2012-05-04T13:29:48Z</time>
      </trkpt>
      <trkpt lat="47.298" lon="6.0151">
        <ele>480.1</ele>
        <time>2012-05-04T13:29:54Z</time>
      </trkpt>
      <trkpt lat="47.29796" lon="6.01501">
        <ele>480</ele>
        <time>2012-05-04T13:30:01Z</time>
      </trkpt>
      <trkpt lat="47.29792" lon="6.01492">
        <ele>478.7</ele>
        <time>2012-05-04T13:30:05Z</time>
      </trkpt>
      <trkpt lat="47.29786" lon="6.01486">
        <ele>479.7</ele>
        <time>2012-05-04T13:30:12Z</time>
      </trkpt>
      <trkpt lat="47.29786" lon="6.01486">
        <ele>420.6</ele>
        <time>2012-05-04T13:30:24Z</time>
      </trkpt>
      <trkpt lat="47.29786" lon="6.01486">
        <ele>420.6</ele>
        <time>2012-05-04T13:30:41Z</time>
      </trkpt>
      <trkpt lat="47.29782" lon="6.01468">
        <ele>477.6</ele>
        <time>2012-05-04T13:30:43Z</time>
      </trkpt>
      <trkpt lat="47.29776" lon="6.01461">
        <ele>476.1</ele>
        <time>2012-05-04T13:30:46Z</time>
      </trkpt>
      <trkpt lat="47.2977" lon="6.01455">
        <ele>476.4</ele>
        <time>2012-05-04T13:30:49Z</time>
      </trkpt>
      <trkpt lat="47.29765" lon="6.01447">
        <ele>474.2</ele>
        <time>2012-05-04T13:30:54Z</time>
      </trkpt>
      <trkpt lat="47.29763" lon="6.01438">
        <ele>473.8</ele>
        <time>2012-05-04T13:30:59Z</time>
      </trkpt>
      <trkpt lat="47.29761" lon="6.01429">
        <ele>473.8</ele>
        <time>2012-05-04T13:31:05Z</time>
      </trkpt>
      <trkpt lat="47.29756" lon="6.01421">
        <ele>473.5</ele>
        <time>2012-05-04T13:31:09Z</time>
      </trkpt>
      <trkpt lat="47.2975" lon="6.01416">
        <ele>474.4</ele>
        <time>2012-05-04T13:31:14Z</time>
      </trkpt>
      <trkpt lat="47.29745" lon="6.01409">
        <ele>472.4</ele>
        <time>2012-05-04T13:31:21Z</time>
      </trkpt>
      <trkpt lat="47.29739" lon="6.01402">
        <ele>472.7</ele>
        <time>2012-05-04T13:31:27Z</time>
      </trkpt>
      <trkpt lat="47.29735" lon="6.01394">
        <ele>472</ele>
        <time>2012-05-04T13:31:33Z</time>
      </trkpt>
      <trkpt lat="47.29728" lon="6.01386">
        <ele>472.1</ele>
        <time>2012-05-04T13:31:39Z</time>
      </trkpt>
      <trkpt lat="47.29723" lon="6.01382">
        <ele>471.2</ele>
        <time>2012-05-04T13:31:44Z</time>
      </trkpt>
      <trkpt lat="47.2972" lon="6.01373">
        <ele>470.1</ele>
        <time>2012-05-04T13:31:53Z</time>
      </trkpt>
      <trkpt lat="47.29718" lon="6.01364">
        <ele>468.9</ele>
        <time>2012-05-04T13:31:58Z</time>
      </trkpt>
      <trkpt lat="47.29713" lon="6.01358">
        <ele>468.9</ele>
        <time>2012-05-04T13:32:02Z</time>
      </trkpt>
      <trkpt lat="47.29708" lon="6.01351">
        <ele>469</ele>
        <time>2012-05-04T13:32:09Z</time>
      </trkpt>
      <trkpt lat="47.297" lon="6.01345">
        <ele>468.2</ele>
        <time>2012-05-04T13:32:13Z</time>
      </trkpt>
      <trkpt lat="47.29694" lon="6.01338">
        <ele>468.9</ele>
        <time>2012-05-04T13:32:19Z</time>
      </trkpt>
      <trkpt lat="47.29689" lon="6.01331">
        <ele>467.5</ele>
        <time>2012-05-04T13:32:25Z</time>
      </trkpt>
      <trkpt lat="47.29682" lon="6.01329">
        <ele>465.6</ele>
        <time>2012-05-04T13:32:31Z</time>
      </trkpt>
      <trkpt lat="47.29675" lon="6.01323">
        <ele>465.9</ele>
        <time>2012-05-04T13:32:35Z</time>
      </trkpt>
      <trkpt lat="47.29669" lon="6.01317">
        <ele>465.2</ele>
        <time>2012-05-04T13:32:41Z</time>
      </trkpt>
      <trkpt lat="47.29663" lon="6.0131">
        <ele>465</ele>
        <time>2012-05-04T13:32:48Z</time>
      </trkpt>
      <trkpt lat="47.29659" lon="6.01304">
        <ele>465.1</ele>
        <time>2012-05-04T13:32:53Z</time>
      </trkpt>
      <trkpt lat="47.29654" lon="6.01297">
        <ele>463.5</ele>
        <time>2012-05-04T13:32:57Z</time>
      </trkpt>
      <trkpt lat="47.29648" lon="6.01288">
        <ele>463.6</ele>
        <time>2012-05-04T13:33:03Z</time>
      </trkpt>
      <trkpt lat="47.29643" lon="6.0128">
        <ele>463.9</ele>
        <time>2012-05-04T13:33:10Z</time>
      </trkpt>
      <trkpt lat="47.29638" lon="6.01273">
        <ele>464</ele>
        <time>2012-05-04T13:33:14Z</time>
      </trkpt>
      <trkpt lat="47.29634" lon="6.01264">
        <ele>464.5</ele>
        <time>2012-05-04T13:33:19Z</time>
      </trkpt>
      <trkpt lat="47.29632" lon="6.01254">
        <ele>464.4</ele>
        <time>2012-05-04T13:33:25Z</time>
      </trkpt>
      <trkpt lat="47.29628" lon="6.01248">
        <ele>464.6</ele>
        <time>2012-05-04T13:33:30Z</time>
      </trkpt>
      <trkpt lat="47.29621" lon="6.01242">
        <ele>464.4</ele>
        <time>2012-05-04T13:33:36Z</time>
      </trkpt>
      <trkpt lat="47.29614" lon="6.01238">
        <ele>463.9</ele>
        <time>2012-05-04T13:33:41Z</time>
      </trkpt>
      <trkpt lat="47.2961" lon="6.01232">
        <ele>463.7</ele>
        <time>2012-05-04T13:33:47Z</time>
      </trkpt>
      <trkpt lat="47.29605" lon="6.01225">
        <ele>463.3</ele>
        <time>2012-05-04T13:33:52Z</time>
      </trkpt>
      <trkpt lat="47.29599" lon="6.01219">
        <ele>463.6</ele>
        <time>2012-05-04T13:33:57Z</time>
      </trkpt>
      <trkpt lat="47.29599" lon="6.01219">
        <ele>408.1</ele>
        <time>2012-05-04T13:34:09Z</time>
      </trkpt>
      <trkpt lat="47.29599" lon="6.01219">
        <ele>408.1</ele>
        <time>2012-05-04T13:34:27Z</time>
      </trkpt>
      <trkpt lat="47.29587" lon="6.01198">
        <ele>458.1</ele>
        <time>2012-05-04T13:34:29Z</time>
      </trkpt>
      <trkpt lat="47.2958" lon="6.01191">
        <ele>455.9</ele>
        <time>2012-05-04T13:34:32Z</time>
      </trkpt>
      <trkpt lat="47.29575" lon="6.01184">
        <ele>456.9</ele>
        <time>2012-05-04T13:34:37Z</time>
      </trkpt>
      <trkpt lat="47.29572" lon="6.01174">
        <ele>457.8</ele>
        <time>2012-05-04T13:34:46Z</time>
      </trkpt>
      <trkpt lat="47.29572" lon="6.01174">
        <ele>404</ele>
        <time>2012-05-04T13:34:58Z</time>
      </trkpt>
      <trkpt lat="47.29572" lon="6.01174">
        <ele>404</ele>
        <time>2012-05-04T13:35:12Z</time>
      </trkpt>
      <trkpt lat="47.29559" lon="6.01161">
        <ele>453.7</ele>
        <time>2012-05-04T13:35:19Z</time>
      </trkpt>
      <trkpt lat="47.29553" lon="6.01155">
        <ele>453.5</ele>
        <time>2012-05-04T13:35:27Z</time>
      </trkpt>
      <trkpt lat="47.29548" lon="6.01148">
        <ele>453.9</ele>
        <time>2012-05-04T13:35:30Z</time>
      </trkpt>
      <trkpt lat="47.29547" lon="6.01136">
        <ele>452.7</ele>
        <time>2012-05-04T13:35:33Z</time>
      </trkpt>
      <trkpt lat="47.29543" lon="6.01128">
        <ele>453.4</ele>
        <time>2012-05-04T13:35:36Z</time>
      </trkpt>
      <trkpt lat="47.29539" lon="6.0112">
        <ele>451.6</ele>
        <time>2012-05-04T13:35:44Z</time>
      </trkpt>
      <trkpt lat="47.29539" lon="6.0112">
        <ele>398.6</ele>
        <time>2012-05-04T13:35:56Z</time>
      </trkpt>
      <trkpt lat="47.29539" lon="6.0112">
        <ele>398.6</ele>
        <time>2012-05-04T13:38:02Z</time>
      </trkpt>
      <trkpt lat="47.29539" lon="6.0112">
        <ele>398.6</ele>
        <time>2012-05-04T13:38:14Z</time>
      </trkpt>
      <trkpt lat="47.29539" lon="6.0112">
        <ele>398.6</ele>
        <time>2012-05-04T13:38:48Z</time>
      </trkpt>
      <trkpt lat="47.29551" lon="6.01097">
        <ele>447.7</ele>
        <time>2012-05-04T13:38:50Z</time>
      </trkpt>
      <trkpt lat="47.29559" lon="6.01094">
        <ele>446.5</ele>
        <time>2012-05-04T13:38:54Z</time>
      </trkpt>
      <trkpt lat="47.29566" lon="6.01093">
        <ele>445.8</ele>
        <time>2012-05-04T13:38:55Z</time>
      </trkpt>
      <trkpt lat="47.29574" lon="6.01096">
        <ele>445.7</ele>
        <time>2012-05-04T13:39:00Z</time>
      </trkpt>
      <trkpt lat="47.29581" lon="6.01098">
        <ele>446.8</ele>
        <time>2012-05-04T13:39:06Z</time>
      </trkpt>
      <trkpt lat="47.29587" lon="6.01103">
        <ele>448</ele>
        <time>2012-05-04T13:39:10Z</time>
      </trkpt>
      <trkpt lat="47.29593" lon="6.0111">
        <ele>447.1</ele>
        <time>2012-05-04T13:39:18Z</time>
      </trkpt>
      <trkpt lat="47.296" lon="6.01115">
        <ele>445.2</ele>
        <time>2012-05-04T13:39:23Z</time>
      </trkpt>
      <trkpt lat="47.29607" lon="6.01116">
        <ele>445.8</ele>
        <time>2012-05-04T13:39:32Z</time>
      </trkpt>
      <trkpt lat="47.29612" lon="6.01122">
        <ele>445.5</ele>
        <time>2012-05-04T13:39:42Z</time>
      </trkpt>
      <trkpt lat="47.29619" lon="6.01127">
        <ele>445.2</ele>
        <time>2012-05-04T13:39:46Z</time>
      </trkpt>
      <trkpt lat="47.29625" lon="6.01135">
        <ele>445.9</ele>
        <time>2012-05-04T13:39:51Z</time>
      </trkpt>
      <trkpt lat="47.2963" lon="6.01141">
        <ele>445.2</ele>
        <time>2012-05-04T13:39:56Z</time>
      </trkpt>
      <trkpt lat="47.29635" lon="6.01147">
        <ele>444.8</ele>
        <time>2012-05-04T13:40:03Z</time>
      </trkpt>
      <trkpt lat="47.29643" lon="6.0115">
        <ele>447.1</ele>
        <time>2012-05-04T13:40:09Z</time>
      </trkpt>
      <trkpt lat="47.29643" lon="6.0115">
        <ele>395.4</ele>
        <time>2012-05-04T13:40:20Z</time>
      </trkpt>
      <trkpt lat="47.29643" lon="6.0115">
        <ele>395.4</ele>
        <time>2012-05-04T13:40:22Z</time>
      </trkpt>
      <trkpt lat="47.29643" lon="6.0115">
        <ele>395.4</ele>
        <time>2012-05-04T13:40:34Z</time>
      </trkpt>
      <trkpt lat="47.29643" lon="6.0115">
        <ele>395.4</ele>
        <time>2012-05-04T13:40:35Z</time>
      </trkpt>
      <trkpt lat="47.29664" lon="6.01159">
        <ele>448</ele>
        <time>2012-05-04T13:40:42Z</time>
      </trkpt>
      <trkpt lat="47.29673" lon="6.01156">
        <ele>447.5</ele>
        <time>2012-05-04T13:40:45Z</time>
      </trkpt>
      <trkpt lat="47.2968" lon="6.01158">
        <ele>447.2</ele>
        <time>2012-05-04T13:40:53Z</time>
      </trkpt>
      <trkpt lat="47.2968" lon="6.01158">
        <ele>390.2</ele>
        <time>2012-05-04T13:41:05Z</time>
      </trkpt>
      <trkpt lat="47.2968" lon="6.01158">
        <ele>390.2</ele>
        <time>2012-05-04T13:41:20Z</time>
      </trkpt>
      <trkpt lat="47.29699" lon="6.0116">
        <ele>442.4</ele>
        <time>2012-05-04T13:41:23Z</time>
      </trkpt>
      <trkpt lat="47.29706" lon="6.0116">
        <ele>441.6</ele>
        <time>2012-05-04T13:41:32Z</time>
      </trkpt>
      <trkpt lat="47.29714" lon="6.01162">
        <ele>441.2</ele>
        <time>2012-05-04T13:41:36Z</time>
      </trkpt>
      <trkpt lat="47.29722" lon="6.01158">
        <ele>441.3</ele>
        <time>2012-05-04T13:41:42Z</time>
      </trkpt>
      <trkpt lat="47.29729" lon="6.01156">
        <ele>441.3</ele>
        <time>2012-05-04T13:41:48Z</time>
      </trkpt>
      <trkpt lat="47.29737" lon="6.01157">
        <ele>441.1</ele>
        <time>2012-05-04T13:41:55Z</time>
      </trkpt>
      <trkpt lat="47.29743" lon="6.01156">
        <ele>442.3</ele>
        <time>2012-05-04T13:42:04Z</time>
      </trkpt>
      <trkpt lat="47.29751" lon="6.01155">
        <ele>443.2</ele>
        <time>2012-05-04T13:42:08Z</time>
      </trkpt>
      <trkpt lat="47.29759" lon="6.01156">
        <ele>444.2</ele>
        <time>2012-05-04T13:42:12Z</time>
      </trkpt>
      <trkpt lat="47.29765" lon="6.01157">
        <ele>445.2</ele>
        <time>2012-05-04T13:42:17Z</time>
      </trkpt>
      <trkpt lat="47.29772" lon="6.01156">
        <ele>445.6</ele>
        <time>2012-05-04T13:42:22Z</time>
      </trkpt>
      <trkpt lat="47.29779" lon="6.01155">
        <ele>443.1</ele>
        <time>2012-05-04T13:42:28Z</time>
      </trkpt>
      <trkpt lat="47.29785" lon="6.01157">
        <ele>443.4</ele>
        <time>2012-05-04T13:42:35Z</time>
      </trkpt>
      <trkpt lat="47.29793" lon="6.01158">
        <ele>443.7</ele>
        <time>2012-05-04T13:42:39Z</time>
      </trkpt>
      <trkpt lat="47.29799" lon="6.01156">
        <ele>442.1</ele>
        <time>2012-05-04T13:42:44Z</time>
      </trkpt>
      <trkpt lat="47.29799" lon="6.01156">
        <ele>386</ele>
        <time>2012-05-04T13:42:56Z</time>
      </trkpt>
      <trkpt lat="47.29799" lon="6.01156">
        <ele>386</ele>
        <time>2012-05-04T13:42:56Z</time>
      </trkpt>
      <trkpt lat="47.29813" lon="6.01152">
        <ele>441.1</ele>
        <time>2012-05-04T13:43:03Z</time>
      </trkpt>
      <trkpt lat="47.2982" lon="6.0115">
        <ele>441.1</ele>
        <time>2012-05-04T13:43:07Z</time>
      </trkpt>
      <trkpt lat="47.29827" lon="6.0115">
        <ele>439</ele>
        <time>2012-05-04T13:43:13Z</time>
      </trkpt>
      <trkpt lat="47.29834" lon="6.01148">
        <ele>440.6</ele>
        <time>2012-05-04T13:43:18Z</time>
      </trkpt>
      <trkpt lat="47.29834" lon="6.01148">
        <ele>385.7</ele>
        <time>2012-05-04T13:43:30Z</time>
      </trkpt>
      <trkpt lat="47.29834" lon="6.01148">
        <ele>385.7</ele>
        <time>2012-05-04T13:43:35Z</time>
      </trkpt>
      <trkpt lat="47.29849" lon="6.01146">
        <ele>433.9</ele>
        <time>2012-05-04T13:43:43Z</time>
      </trkpt>
      <trkpt lat="47.29849" lon="6.01146">
        <ele>385.9</ele>
        <time>2012-05-04T13:43:54Z</time>
      </trkpt>
      <trkpt lat="47.29849" lon="6.01146">
        <ele>385.9</ele>
        <time>2012-05-04T13:44:13Z</time>
      </trkpt>
      <trkpt lat="47.29863" lon="6.01143">
        <ele>433.1</ele>
        <time>2012-05-04T13:44:16Z</time>
      </trkpt>
      <trkpt lat="47.29865" lon="6.01134">
        <ele>432.4</ele>
        <time>2012-05-04T13:44:23Z</time>
      </trkpt>
      <trkpt lat="47.29869" lon="6.01127">
        <ele>434.3</ele>
        <time>2012-05-04T13:44:27Z</time>
      </trkpt>
      <trkpt lat="47.29875" lon="6.01121">
        <ele>435.3</ele>
        <time>2012-05-04T13:44:30Z</time>
      </trkpt>
      <trkpt lat="47.29881" lon="6.01114">
        <ele>434.9</ele>
        <time>2012-05-04T13:44:36Z</time>
      </trkpt>
      <trkpt lat="47.29885" lon="6.01107">
        <ele>435.7</ele>
        <time>2012-05-04T13:44:47Z</time>
      </trkpt>
      <trkpt lat="47.29889" lon="6.011">
        <ele>435.7</ele>
        <time>2012-05-04T13:44:51Z</time>
      </trkpt>
      <trkpt lat="47.29893" lon="6.01092">
        <ele>434.4</ele>
        <time>2012-05-04T13:44:55Z</time>
      </trkpt>
      <trkpt lat="47.29899" lon="6.01088">
        <ele>433.2</ele>
        <time>2012-05-04T13:45:01Z</time>
      </trkpt>
      <trkpt lat="47.29904" lon="6.01078">
        <ele>434.3</ele>
        <time>2012-05-04T13:45:07Z</time>
      </trkpt>
      <trkpt lat="47.2991" lon="6.01074">
        <ele>434.3</ele>
        <time>2012-05-04T13:45:13Z</time>
      </trkpt>
      <trkpt lat="47.29918" lon="6.01068">
        <ele>433.7</ele>
        <time>2012-05-04T13:45:19Z</time>
      </trkpt>
      <trkpt lat="47.29922" lon="6.01061">
        <ele>433.2</ele>
        <time>2012-05-04T13:45:23Z</time>
      </trkpt>
      <trkpt lat="47.29928" lon="6.01056">
        <ele>434.7</ele>
        <time>2012-05-04T13:45:30Z</time>
      </trkpt>
      <trkpt lat="47.29934" lon="6.01052">
        <ele>432.7</ele>
        <time>2012-05-04T13:45:35Z</time>
      </trkpt>
      <trkpt lat="47.2994" lon="6.0105">
        <ele>431.8</ele>
        <time>2012-05-04T13:45:40Z</time>
      </trkpt>
      <trkpt lat="47.29945" lon="6.01042">
        <ele>431.7</ele>
        <time>2012-05-04T13:45:46Z</time>
      </trkpt>
      <trkpt lat="47.29951" lon="6.01042">
        <ele>429.6</ele>
        <time>2012-05-04T13:45:54Z</time>
      </trkpt>
      <trkpt lat="47.29951" lon="6.01042">
        <ele>380</ele>
        <time>2012-05-04T13:46:06Z</time>
      </trkpt>
      <trkpt lat="47.29951" lon="6.01042">
        <ele>380</ele>
        <time>2012-05-04T13:46:34Z</time>
      </trkpt>
      <trkpt lat="47.29968" lon="6.01032">
        <ele>425.4</ele>
        <time>2012-05-04T13:46:36Z</time>
      </trkpt>
      <trkpt lat="47.2997" lon="6.0102">
        <ele>423.1</ele>
        <time>2012-05-04T13:46:40Z</time>
      </trkpt>
      <trkpt lat="47.29977" lon="6.01018">
        <ele>424.3</ele>
        <time>2012-05-04T13:46:42Z</time>
      </trkpt>
      <trkpt lat="47.29984" lon="6.01013">
        <ele>426.5</ele>
        <time>2012-05-04T13:46:45Z</time>
      </trkpt>
      <trkpt lat="47.29991" lon="6.01008">
        <ele>426.2</ele>
        <time>2012-05-04T13:46:49Z</time>
      </trkpt>
      <trkpt lat="47.29996" lon="6.01002">
        <ele>427.5</ele>
        <time>2012-05-04T13:46:53Z</time>
      </trkpt>
      <trkpt lat="47.30003" lon="6.00996">
        <ele>429.3</ele>
        <time>2012-05-04T13:46:57Z</time>
      </trkpt>
      <trkpt lat="47.30008" lon="6.00991">
        <ele>427.8</ele>
        <time>2012-05-04T13:47:02Z</time>
      </trkpt>
      <trkpt lat="47.30014" lon="6.00984">
        <ele>426.3</ele>
        <time>2012-05-04T13:47:09Z</time>
      </trkpt>
      <trkpt lat="47.3002" lon="6.0098">
        <ele>425.7</ele>
        <time>2012-05-04T13:47:15Z</time>
      </trkpt>
      <trkpt lat="47.3002" lon="6.0098">
        <ele>374.3</ele>
        <time>2012-05-04T13:47:27Z</time>
      </trkpt>
      <trkpt lat="47.3002" lon="6.0098">
        <ele>374.3</ele>
        <time>2012-05-04T13:47:33Z</time>
      </trkpt>
      <trkpt lat="47.30036" lon="6.00968">
        <ele>427.1</ele>
        <time>2012-05-04T13:47:35Z</time>
      </trkpt>
      <trkpt lat="47.3004" lon="6.00962">
        <ele>428.1</ele>
        <time>2012-05-04T13:47:40Z</time>
      </trkpt>
      <trkpt lat="47.30044" lon="6.00953">
        <ele>428.7</ele>
        <time>2012-05-04T13:47:45Z</time>
      </trkpt>
      <trkpt lat="47.30044" lon="6.00953">
        <ele>375.1</ele>
        <time>2012-05-04T13:47:57Z</time>
      </trkpt>
      <trkpt lat="47.30044" lon="6.00953">
        <ele>375.1</ele>
        <time>2012-05-04T13:49:11Z</time>
      </trkpt>
      <trkpt lat="47.30044" lon="6.00953">
        <ele>375.1</ele>
        <time>2012-05-04T13:49:23Z</time>
      </trkpt>
      <trkpt lat="47.30044" lon="6.00953">
        <ele>375.1</ele>
        <time>2012-05-04T13:51:31Z</time>
      </trkpt>
      <trkpt lat="47.30062" lon="6.00945">
        <ele>429.6</ele>
        <time>2012-05-04T13:51:36Z</time>
      </trkpt>
      <trkpt lat="47.30069" lon="6.00944">
        <ele>430.4</ele>
        <time>2012-05-04T13:51:44Z</time>
      </trkpt>
      <trkpt lat="47.30076" lon="6.00943">
        <ele>431.3</ele>
        <time>2012-05-04T13:51:47Z</time>
      </trkpt>
      <trkpt lat="47.30083" lon="6.00941">
        <ele>431.1</ele>
        <time>2012-05-04T13:51:49Z</time>
      </trkpt>
      <trkpt lat="47.30091" lon="6.00941">
        <ele>431.1</ele>
        <time>2012-05-04T13:51:54Z</time>
      </trkpt>
      <trkpt lat="47.30097" lon="6.00938">
        <ele>435.3</ele>
        <time>2012-05-04T13:51:57Z</time>
      </trkpt>
      <trkpt lat="47.30097" lon="6.00938">
        <ele>380.7</ele>
        <time>2012-05-04T13:52:09Z</time>
      </trkpt>
      <trkpt lat="47.30097" lon="6.00938">
        <ele>380.7</ele>
        <time>2012-05-04T13:53:15Z</time>
      </trkpt>
      <trkpt lat="47.30114" lon="6.00937">
        <ele>438.3</ele>
        <time>2012-05-04T13:53:18Z</time>
      </trkpt>
      <trkpt lat="47.30121" lon="6.0094">
        <ele>438.6</ele>
        <time>2012-05-04T13:53:22Z</time>
      </trkpt>
      <trkpt lat="47.30121" lon="6.0094">
        <ele>383.3</ele>
        <time>2012-05-04T13:53:34Z</time>
      </trkpt>
      <trkpt lat="47.30121" lon="6.0094">
        <ele>383.3</ele>
        <time>2012-05-04T13:53:37Z</time>
      </trkpt>
      <trkpt lat="47.30136" lon="6.00933">
        <ele>436.5</ele>
        <time>2012-05-04T13:53:46Z</time>
      </trkpt>
      <trkpt lat="47.30136" lon="6.00933">
        <ele>385.1</ele>
        <time>2012-05-04T13:53:58Z</time>
      </trkpt>
      <trkpt lat="47.30136" lon="6.00933">
        <ele>385.1</ele>
        <time>2012-05-04T13:54:18Z</time>
      </trkpt>
      <trkpt lat="47.30155" lon="6.00929">
        <ele>436.7</ele>
        <time>2012-05-04T13:54:20Z</time>
      </trkpt>
      <trkpt lat="47.30161" lon="6.00923">
        <ele>438</ele>
        <time>2012-05-04T13:54:22Z</time>
      </trkpt>
      <trkpt lat="47.30168" lon="6.00922">
        <ele>439.6</ele>
        <time>2012-05-04T13:54:25Z</time>
      </trkpt>
      <trkpt lat="47.30178" lon="6.00918">
        <ele>440.9</ele>
        <time>2012-05-04T13:54:29Z</time>
      </trkpt>
      <trkpt lat="47.30181" lon="6.00911">
        <ele>440.5</ele>
        <time>2012-05-04T13:54:32Z</time>
      </trkpt>
      <trkpt lat="47.30187" lon="6.00906">
        <ele>441.5</ele>
        <time>2012-05-04T13:54:37Z</time>
      </trkpt>
      <trkpt lat="47.30195" lon="6.009">
        <ele>442.7</ele>
        <time>2012-05-04T13:54:41Z</time>
      </trkpt>
      <trkpt lat="47.302" lon="6.00894">
        <ele>443.2</ele>
        <time>2012-05-04T13:54:48Z</time>
      </trkpt>
      <trkpt lat="47.302" lon="6.00894">
        <ele>393.6</ele>
        <time>2012-05-04T13:54:59Z</time>
      </trkpt>
      <trkpt lat="47.302" lon="6.00894">
        <ele>393.6</ele>
        <time>2012-05-04T13:55:13Z</time>
      </trkpt>
      <trkpt lat="47.30217" lon="6.00898">
        <ele>443.6</ele>
        <time>2012-05-04T13:55:15Z</time>
      </trkpt>
      <trkpt lat="47.30226" lon="6.009">
        <ele>443.9</ele>
        <time>2012-05-04T13:55:18Z</time>
      </trkpt>
      <trkpt lat="47.30232" lon="6.00904">
        <ele>444.5</ele>
        <time>2012-05-04T13:55:21Z</time>
      </trkpt>
      <trkpt lat="47.30239" lon="6.00908">
        <ele>443</ele>
        <time>2012-05-04T13:55:26Z</time>
      </trkpt>
      <trkpt lat="47.30245" lon="6.00912">
        <ele>445</ele>
        <time>2012-05-04T13:55:29Z</time>
      </trkpt>
      <trkpt lat="47.30252" lon="6.00915">
        <ele>445.1</ele>
        <time>2012-05-04T13:55:36Z</time>
      </trkpt>
      <trkpt lat="47.30256" lon="6.00923">
        <ele>443.8</ele>
        <time>2012-05-04T13:55:44Z</time>
      </trkpt>
      <trkpt lat="47.30256" lon="6.00923">
        <ele>399.7</ele>
        <time>2012-05-04T13:55:56Z</time>
      </trkpt>
      <trkpt lat="47.30256" lon="6.00923">
        <ele>399.7</ele>
        <time>2012-05-04T13:57:41Z</time>
      </trkpt>
      <trkpt lat="47.30269" lon="6.00944">
        <ele>442.1</ele>
        <time>2012-05-04T13:57:44Z</time>
      </trkpt>
      <trkpt lat="47.30275" lon="6.00953">
        <ele>444.4</ele>
        <time>2012-05-04T13:57:47Z</time>
      </trkpt>
      <trkpt lat="47.30281" lon="6.0096">
        <ele>446</ele>
        <time>2012-05-04T13:57:48Z</time>
      </trkpt>
      <trkpt lat="47.30288" lon="6.00967">
        <ele>445.9</ele>
        <time>2012-05-04T13:57:51Z</time>
      </trkpt>
      <trkpt lat="47.30293" lon="6.00977">
        <ele>448.4</ele>
        <time>2012-05-04T13:57:55Z</time>
      </trkpt>
      <trkpt lat="47.303" lon="6.00978">
        <ele>448.1</ele>
        <time>2012-05-04T13:58:00Z</time>
      </trkpt>
      <trkpt lat="47.303" lon="6.00978">
        <ele>404.3</ele>
        <time>2012-05-04T13:58:11Z</time>
      </trkpt>
      <trkpt lat="47.303" lon="6.00978">
        <ele>404.3</ele>
        <time>2012-05-04T13:58:29Z</time>
      </trkpt>
      <trkpt lat="47.30286" lon="6.00977">
        <ele>446.5</ele>
        <time>2012-05-04T13:58:32Z</time>
      </trkpt>
      <trkpt lat="47.30283" lon="6.00968">
        <ele>447.5</ele>
        <time>2012-05-04T13:58:38Z</time>
      </trkpt>
      <trkpt lat="47.3028" lon="6.00958">
        <ele>445.8</ele>
        <time>2012-05-04T13:58:45Z</time>
      </trkpt>
      <trkpt lat="47.30276" lon="6.00945">
        <ele>446.6</ele>
        <time>2012-05-04T13:58:53Z</time>
      </trkpt>
      <trkpt lat="47.30272" lon="6.00935">
        <ele>449.5</ele>
        <time>2012-05-04T13:59:01Z</time>
      </trkpt>
      <trkpt lat="47.30266" lon="6.0093">
        <ele>451.3</ele>
        <time>2012-05-04T13:59:11Z</time>
      </trkpt>
      <trkpt lat="47.30261" lon="6.00924">
        <ele>451.6</ele>
        <time>2012-05-04T13:59:13Z</time>
      </trkpt>
      <trkpt lat="47.30261" lon="6.00924">
        <ele>400.3</ele>
        <time>2012-05-04T13:59:25Z</time>
      </trkpt>
      <trkpt lat="47.30261" lon="6.00924">
        <ele>400.3</ele>
        <time>2012-05-04T13:59:40Z</time>
      </trkpt>
      <trkpt lat="47.30242" lon="6.00914">
        <ele>451.3</ele>
        <time>2012-05-04T13:59:43Z</time>
      </trkpt>
      <trkpt lat="47.30235" lon="6.00909">
        <ele>448.9</ele>
        <time>2012-05-04T13:59:45Z</time>
      </trkpt>
      <trkpt lat="47.30228" lon="6.00905">
        <ele>449.4</ele>
        <time>2012-05-04T13:59:48Z</time>
      </trkpt>
      <trkpt lat="47.30221" lon="6.00903">
        <ele>448.4</ele>
        <time>2012-05-04T13:59:52Z</time>
      </trkpt>
      <trkpt lat="47.30214" lon="6.00902">
        <ele>447.6</ele>
        <time>2012-05-04T13:59:56Z</time>
      </trkpt>
      <trkpt lat="47.30208" lon="6.00902">
        <ele>448.1</ele>
        <time>2012-05-04T14:00:00Z</time>
      </trkpt>
      <trkpt lat="47.30201" lon="6.00904">
        <ele>448.1</ele>
        <time>2012-05-04T14:00:05Z</time>
      </trkpt>
      <trkpt lat="47.30195" lon="6.00909">
        <ele>447.2</ele>
        <time>2012-05-04T14:00:12Z</time>
      </trkpt>
      <trkpt lat="47.30191" lon="6.00916">
        <ele>444.4</ele>
        <time>2012-05-04T14:00:15Z</time>
      </trkpt>
      <trkpt lat="47.30183" lon="6.00918">
        <ele>443.1</ele>
        <time>2012-05-04T14:00:21Z</time>
      </trkpt>
      <trkpt lat="47.30176" lon="6.00919">
        <ele>442.3</ele>
        <time>2012-05-04T14:00:29Z</time>
      </trkpt>
      <trkpt lat="47.30169" lon="6.0092">
        <ele>441.4</ele>
        <time>2012-05-04T14:00:36Z</time>
      </trkpt>
      <trkpt lat="47.30163" lon="6.0092">
        <ele>442</ele>
        <time>2012-05-04T14:00:41Z</time>
      </trkpt>
      <trkpt lat="47.30156" lon="6.00922">
        <ele>442.8</ele>
        <time>2012-05-04T14:00:45Z</time>
      </trkpt>
      <trkpt lat="47.30148" lon="6.00927">
        <ele>441.5</ele>
        <time>2012-05-04T14:00:52Z</time>
      </trkpt>
      <trkpt lat="47.30141" lon="6.0093">
        <ele>439.9</ele>
        <time>2012-05-04T14:01:00Z</time>
      </trkpt>
      <trkpt lat="47.30135" lon="6.00934">
        <ele>438</ele>
        <time>2012-05-04T14:01:07Z</time>
      </trkpt>
      <trkpt lat="47.30131" lon="6.00941">
        <ele>438.4</ele>
        <time>2012-05-04T14:01:12Z</time>
      </trkpt>
      <trkpt lat="47.30123" lon="6.00943">
        <ele>437.9</ele>
        <time>2012-05-04T14:01:19Z</time>
      </trkpt>
      <trkpt lat="47.30123" lon="6.00943">
        <ele>383.4</ele>
        <time>2012-05-04T14:01:31Z</time>
      </trkpt>
      <trkpt lat="47.30123" lon="6.00943">
        <ele>383.4</ele>
        <time>2012-05-04T14:01:32Z</time>
      </trkpt>
      <trkpt lat="47.30108" lon="6.00928">
        <ele>432.6</ele>
        <time>2012-05-04T14:01:42Z</time>
      </trkpt>
      <trkpt lat="47.30114" lon="6.00922">
        <ele>433.3</ele>
        <time>2012-05-04T14:01:47Z</time>
      </trkpt>
      <trkpt lat="47.30116" lon="6.00911">
        <ele>433.2</ele>
        <time>2012-05-04T14:01:58Z</time>
      </trkpt>
      <trkpt lat="47.30122" lon="6.00905">
        <ele>435</ele>
        <time>2012-05-04T14:02:05Z</time>
      </trkpt>
      <trkpt lat="47.30125" lon="6.00895">
        <ele>434.6</ele>
        <time>2012-05-04T14:02:11Z</time>
      </trkpt>
      <trkpt lat="47.30125" lon="6.00886">
        <ele>435.3</ele>
        <time>2012-05-04T14:02:21Z</time>
      </trkpt>
      <trkpt lat="47.30127" lon="6.00876">
        <ele>435.5</ele>
        <time>2012-05-04T14:02:24Z</time>
      </trkpt>
      <trkpt lat="47.30126" lon="6.00866">
        <ele>435.2</ele>
        <time>2012-05-04T14:02:29Z</time>
      </trkpt>
      <trkpt lat="47.30129" lon="6.00857">
        <ele>433.8</ele>
        <time>2012-05-04T14:02:37Z</time>
      </trkpt>
      <trkpt lat="47.30129" lon="6.00857">
        <ele>387.1</ele>
        <time>2012-05-04T14:02:48Z</time>
      </trkpt>
      <trkpt lat="47.30245" lon="6.00775">
        <ele>444</ele>
        <time>2012-05-04T14:05:02Z</time>
      </trkpt>
      <trkpt lat="47.30252" lon="6.00775">
        <ele>442.1</ele>
        <time>2012-05-04T14:05:07Z</time>
      </trkpt>
      <trkpt lat="47.30257" lon="6.0077">
        <ele>444.9</ele>
        <time>2012-05-04T14:05:17Z</time>
      </trkpt>
      <trkpt lat="47.30257" lon="6.0077">
        <ele>403.6</ele>
        <time>2012-05-04T14:05:28Z</time>
      </trkpt>
      <trkpt lat="47.30257" lon="6.0077">
        <ele>403.6</ele>
        <time>2012-05-04T14:05:32Z</time>
      </trkpt>
      <trkpt lat="47.30271" lon="6.00761">
        <ele>445.3</ele>
        <time>2012-05-04T14:05:37Z</time>
      </trkpt>
      <trkpt lat="47.30277" lon="6.00756">
        <ele>446.8</ele>
        <time>2012-05-04T14:05:41Z</time>
      </trkpt>
      <trkpt lat="47.30281" lon="6.00749">
        <ele>451</ele>
        <time>2012-05-04T14:05:50Z</time>
      </trkpt>
      <trkpt lat="47.30289" lon="6.00747">
        <ele>451.7</ele>
        <time>2012-05-04T14:05:56Z</time>
      </trkpt>
      <trkpt lat="47.30295" lon="6.00745">
        <ele>451.1</ele>
        <time>2012-05-04T14:06:02Z</time>
      </trkpt>
      <trkpt lat="47.30302" lon="6.00744">
        <ele>450.8</ele>
        <time>2012-05-04T14:06:10Z</time>
      </trkpt>
      <trkpt lat="47.30302" lon="6.00744">
        <ele>408.8</ele>
        <time>2012-05-04T14:06:22Z</time>
      </trkpt>
      <trkpt lat="47.30302" lon="6.00744">
        <ele>408.8</ele>
        <time>2012-05-04T14:06:29Z</time>
      </trkpt>
      <trkpt lat="47.30315" lon="6.0074">
        <ele>453.1</ele>
        <time>2012-05-04T14:06:38Z</time>
      </trkpt>
      <trkpt lat="47.30322" lon="6.0074">
        <ele>453.1</ele>
        <time>2012-05-04T14:06:45Z</time>
      </trkpt>
      <trkpt lat="47.30329" lon="6.00739">
        <ele>455.8</ele>
        <time>2012-05-04T14:06:50Z</time>
      </trkpt>
      <trkpt lat="47.30341" lon="6.00735">
        <ele>456.3</ele>
        <time>2012-05-04T14:06:57Z</time>
      </trkpt>
      <trkpt lat="47.30349" lon="6.00733">
        <ele>458.1</ele>
        <time>2012-05-04T14:06:59Z</time>
      </trkpt>
      <trkpt lat="47.30356" lon="6.00731">
        <ele>458.3</ele>
        <time>2012-05-04T14:07:03Z</time>
      </trkpt>
      <trkpt lat="47.30363" lon="6.0073">
        <ele>459.1</ele>
        <time>2012-05-04T14:07:09Z</time>
      </trkpt>
      <trkpt lat="47.30371" lon="6.00728">
        <ele>459.8</ele>
        <time>2012-05-04T14:07:15Z</time>
      </trkpt>
      <trkpt lat="47.30378" lon="6.00726">
        <ele>461.6</ele>
        <time>2012-05-04T14:07:20Z</time>
      </trkpt>
      <trkpt lat="47.30386" lon="6.00729">
        <ele>461.4</ele>
        <time>2012-05-04T14:07:24Z</time>
      </trkpt>
      <trkpt lat="47.30392" lon="6.00732">
        <ele>461.8</ele>
        <time>2012-05-04T14:07:29Z</time>
      </trkpt>
      <trkpt lat="47.30398" lon="6.00737">
        <ele>461.3</ele>
        <time>2012-05-04T14:07:36Z</time>
      </trkpt>
      <trkpt lat="47.30404" lon="6.0074">
        <ele>461.6</ele>
        <time>2012-05-04T14:07:43Z</time>
      </trkpt>
      <trkpt lat="47.30411" lon="6.00743">
        <ele>462.4</ele>
        <time>2012-05-04T14:07:50Z</time>
      </trkpt>
      <trkpt lat="47.30418" lon="6.00746">
        <ele>463.4</ele>
        <time>2012-05-04T14:07:57Z</time>
      </trkpt>
      <trkpt lat="47.30425" lon="6.00751">
        <ele>465.8</ele>
        <time>2012-05-04T14:08:02Z</time>
      </trkpt>
      <trkpt lat="47.30431" lon="6.00755">
        <ele>466.8</ele>
        <time>2012-05-04T14:08:09Z</time>
      </trkpt>
      <trkpt lat="47.30437" lon="6.00761">
        <ele>467.5</ele>
        <time>2012-05-04T14:08:18Z</time>
      </trkpt>
      <trkpt lat="47.30443" lon="6.00762">
        <ele>468.8</ele>
        <time>2012-05-04T14:08:22Z</time>
      </trkpt>
      <trkpt lat="47.3045" lon="6.00765">
        <ele>466.2</ele>
        <time>2012-05-04T14:08:28Z</time>
      </trkpt>
      <trkpt lat="47.30456" lon="6.00765">
        <ele>467.5</ele>
        <time>2012-05-04T14:08:35Z</time>
      </trkpt>
      <trkpt lat="47.30463" lon="6.00769">
        <ele>470.1</ele>
        <time>2012-05-04T14:08:43Z</time>
      </trkpt>
      <trkpt lat="47.30471" lon="6.0077">
        <ele>469.5</ele>
        <time>2012-05-04T14:08:51Z</time>
      </trkpt>
      <trkpt lat="47.30477" lon="6.0077">
        <ele>468.8</ele>
        <time>2012-05-04T14:08:55Z</time>
      </trkpt>
      <trkpt lat="47.30485" lon="6.0077">
        <ele>468.9</ele>
        <time>2012-05-04T14:09:02Z</time>
      </trkpt>
      <trkpt lat="47.30491" lon="6.00772">
        <ele>470.3</ele>
        <time>2012-05-04T14:09:09Z</time>
      </trkpt>
      <trkpt lat="47.30499" lon="6.00772">
        <ele>470.4</ele>
        <time>2012-05-04T14:09:15Z</time>
      </trkpt>
      <trkpt lat="47.30505" lon="6.00773">
        <ele>471.2</ele>
        <time>2012-05-04T14:09:21Z</time>
      </trkpt>
      <trkpt lat="47.30513" lon="6.00772">
        <ele>472.4</ele>
        <time>2012-05-04T14:09:26Z</time>
      </trkpt>
      <trkpt lat="47.3052" lon="6.00774">
        <ele>473</ele>
        <time>2012-05-04T14:09:34Z</time>
      </trkpt>
      <trkpt lat="47.30526" lon="6.00772">
        <ele>474.3</ele>
        <time>2012-05-04T14:09:39Z</time>
      </trkpt>
      <trkpt lat="47.30533" lon="6.00768">
        <ele>477.2</ele>
        <time>2012-05-04T14:09:47Z</time>
      </trkpt>
      <trkpt lat="47.30539" lon="6.00765">
        <ele>477.5</ele>
        <time>2012-05-04T14:09:52Z</time>
      </trkpt>
      <trkpt lat="47.30546" lon="6.00763">
        <ele>477.7</ele>
        <time>2012-05-04T14:09:56Z</time>
      </trkpt>
      <trkpt lat="47.30552" lon="6.00764">
        <ele>478.1</ele>
        <time>2012-05-04T14:10:02Z</time>
      </trkpt>
      <trkpt lat="47.30557" lon="6.0077">
        <ele>477.6</ele>
        <time>2012-05-04T14:10:06Z</time>
      </trkpt>
      <trkpt lat="47.30564" lon="6.00772">
        <ele>478</ele>
        <time>2012-05-04T14:10:12Z</time>
      </trkpt>
      <trkpt lat="47.30571" lon="6.00775">
        <ele>478</ele>
        <time>2012-05-04T14:10:17Z</time>
      </trkpt>
      <trkpt lat="47.30577" lon="6.0078">
        <ele>477.3</ele>
        <time>2012-05-04T14:10:25Z</time>
      </trkpt>
      <trkpt lat="47.30582" lon="6.00786">
        <ele>476.5</ele>
        <time>2012-05-04T14:10:31Z</time>
      </trkpt>
      <trkpt lat="47.30586" lon="6.00795">
        <ele>475.1</ele>
        <time>2012-05-04T14:10:37Z</time>
      </trkpt>
      <trkpt lat="47.30592" lon="6.00801">
        <ele>475.5</ele>
        <time>2012-05-04T14:10:44Z</time>
      </trkpt>
      <trkpt lat="47.30598" lon="6.00806">
        <ele>476.9</ele>
        <time>2012-05-04T14:10:49Z</time>
      </trkpt>
      <trkpt lat="47.30604" lon="6.00814">
        <ele>479.6</ele>
        <time>2012-05-04T14:11:00Z</time>
      </trkpt>
      <trkpt lat="47.3061" lon="6.00822">
        <ele>479.7</ele>
        <time>2012-05-04T14:11:06Z</time>
      </trkpt>
      <trkpt lat="47.30615" lon="6.00826">
        <ele>481.4</ele>
        <time>2012-05-04T14:11:14Z</time>
      </trkpt>
      <trkpt lat="47.30615" lon="6.00826">
        <ele>433.4</ele>
        <time>2012-05-04T14:11:26Z</time>
      </trkpt>
      <trkpt lat="47.30615" lon="6.00826">
        <ele>433.4</ele>
        <time>2012-05-04T14:11:49Z</time>
      </trkpt>
      <trkpt lat="47.30624" lon="6.00841">
        <ele>479</ele>
        <time>2012-05-04T14:11:52Z</time>
      </trkpt>
      <trkpt lat="47.30629" lon="6.00848">
        <ele>479.3</ele>
        <time>2012-05-04T14:11:55Z</time>
      </trkpt>
      <trkpt lat="47.30635" lon="6.00853">
        <ele>479.9</ele>
        <time>2012-05-04T14:11:59Z</time>
      </trkpt>
      <trkpt lat="47.3064" lon="6.00858">
        <ele>480</ele>
        <time>2012-05-04T14:12:01Z</time>
      </trkpt>
      <trkpt lat="47.30645" lon="6.00865">
        <ele>480.4</ele>
        <time>2012-05-04T14:12:05Z</time>
      </trkpt>
      <trkpt lat="47.30651" lon="6.00871">
        <ele>482.1</ele>
        <time>2012-05-04T14:12:11Z</time>
      </trkpt>
      <trkpt lat="47.30654" lon="6.0088">
        <ele>483.1</ele>
        <time>2012-05-04T14:12:16Z</time>
      </trkpt>
      <trkpt lat="47.30654" lon="6.0088">
        <ele>433.8</ele>
        <time>2012-05-04T14:12:28Z</time>
      </trkpt>
      <trkpt lat="47.30654" lon="6.0088">
        <ele>433.8</ele>
        <time>2012-05-04T14:13:37Z</time>
      </trkpt>
      <trkpt lat="47.30654" lon="6.0088">
        <ele>433.8</ele>
        <time>2012-05-04T14:13:49Z</time>
      </trkpt>
      <trkpt lat="47.30654" lon="6.0088">
        <ele>433.8</ele>
        <time>2012-05-04T14:13:58Z</time>
      </trkpt>
    </trkseg>
  </trk>
</gpx>